DESAFIO BRAVES

BRAVES

Data:
20/08/2016


Elite Feminino


ColNumNomeId.Fx.Et.Cl.Fx.Sx.C.EquipeTempo
1168SAMANTA MAXIMO DA SILVA36M3044-FCAVULSO01:35:11
2112RAFAELA MANSUR DIOTALEVI34M3044-FC#FIREFEET01:39:55
3355POLLYANA ROCIO DA SILVA31M3044-FCFRENDES RUN01:42:48
4208HELLEN CHRISTINA DA SILVA20F20291FAVULSO01:48:20
519DAIANY MOTTIN30F30441FREQUINTE01:54:49
6464DEBORA SPERANCETTA34F30442FREQUINTE01:58:11
7393SUELEN PRESSER33F30443FMC SPORTS CLUBE01:59:04
8188TATIANE BOEIRA GALLE27F20292FAVULSO02:02:14
9158MARCELA C P U RODRIGUES35F30444FAVULSO02:04:39
10523FABIANA BOING DE MELO39F30445FXTF02:06:26
11540ISABELLA CRISTINA TONINELLO33F30446F02:20:59
1281SUELEN MOREIRA DE CARLI30F30447FCROSSX02:23:02
1351LAURA ULIANA30F30448FBITTENCOURTRUN02:23:28
1496ELAINE CRISTINA PILAR34F30449FCOSENZA TEAM02:25:02
15492MARIANA MUSSI BARBOSA29F20293FTEAMTF02:25:14
16361LINA RIGODANZO MARINS23F20294FGRALHA UFPR02:26:44
17248PATRICIA ASSUNCAO FAVARETTO39F304410FBIOFILIA02:29:37
18398LILIANE DA ROCHA BONATTO27F20295FMUD VIKINGS CASCAVEL02:31:44
19199MICHELLE HORACIO32F304411FAVULSO02:35:37
20376ELOISA CORREIA LAIBIDA21F20296FHYPER LAPA02:36:25
21191DENISE BAUM34F304412FAVULSO02:39:03
22526LETICIA MANKE25F20297FXTF02:39:10
23103ELISA DE OLIVEIRA23F20298F#FIREFEET02:39:53
24106KAOANI LUIZA OLIVEIRA DE LACERDA21F20299F#FIREFEET02:39:53
25111PATRICIA PANSTEIN LIMA35F304413F#FIREFEET02:39:53
2660JHENIFER DE SOUZA25F202910FINDIVIDUAL02:41:02
27176BIANCA DE OLIVEIRA LIMA22F202911FAVULSO02:44:27
28347CAMILA CELEZINSKI25F202912FFERA02:46:50
29267MELINA SOUZA GAPSKI31F304414FCOSENZA TEAM02:47:01
30215AILA ROCHA GARCIA34F304415FAVULSO02:50:32
31119JULIANE GRECA38F304416FA TEAM JRMD02:54:00
32509SUELEN AP SILVEIRA DE ALMEIDA COELHO33F304417FTUCANOS ARAPONGAS02:57:23
33225FERNANDA STICA RITZDORF DE MELLO30F304418FAVULSO02:59:12
34239CAMILA CASTRO39F304419FAVULSO02:59:14
3592ANDREA ARRUDA VAZ35F304420FAVULSO03:01:41
36145VIVIANE SUREK30F304421FAVULSO03:01:42
37240ISADORA ABRANTES BERTOLI20F202913FAVULSO03:02:13
3895RENATA ROLOFF43F304422FAVULSO03:02:16
39368MARCIA SOUZA45F45991FHYPE03:03:21
40313ALINE POLICARPO8F00131FDELTA FITNESS03:03:31
41121JULIANA FERREIRA DIAS29F202914FACADEMIA HYPE03:03:34
42138MAYARA LOPES27F202915FAVULSO03:04:14
43277ALESSANDRA RODRIGUES DA COSTA31F304423FCOSENZA TEAM03:04:48
44396SUELEN GATTIS LISBOA30F304424FMR BOMBASTIC03:05:22
45149ANA LETICIA CASTELLI MARTINEZ26F202916FAVULSO03:05:46
46255IZABELLA LUANA MARINHO20F202917FCANELITE03:05:48
47435MARLI TERESINHA BORBA ANDRZEJEWSKI41F304425FPARDUS CROSSFIT03:06:38
48522CLAUDIA R. VENTURI26F202918FXTF03:06:57
49269JOSIANE COLAÇO DOS SANTOS FERNADES36F304426FCOSENZA TEAM03:09:00
50331JESSICA CARVALHO KARAM29F202919FFACA NA CAVEIRA03:11:16
51333LAIS AMANDA25F202920FFACA NA CAVEIRA03:11:20
52339CAROLINA FERRARINE23F202921FFACA NA CAVEIRA03:11:27
53327KEILA BARRIL23F202922FFACA NA CAVEIRA03:11:29
5467EVELYN CRISTINA TOFOLI22F202923FFACA NA CAVEIRA03:11:36
55335CINTIA MARA PRECHLAK22F202924FFACA NA CAVEIRA03:12:06
56336STEPHANI PEREIRA DE ALMEIDA21F202925FFACA NA CAVEIRA03:12:11
57110MARILIA DE OLIVEIRA26F202926F#FIREFEET03:12:21
5868FLAVIA DE ALCANTARA BERNARDI42F304427FFACA NA CAVEIRA03:12:32
59328KAUANE RIBEIRO TAVARES20F202927FFACA NA CAVEIRA03:12:39
60345CRISTIANE DE LIMA WAHLUS30F304428FFACA NA CAVEIRA03:12:43
61424ANDREIA DEPIERI35F304429FNICCO COACHING/BROLEXRUNNING03:14:45
62416ALESSANDRA MIOTTO38F304430FNICCO COACHING/BROLEXRUNNING03:14:47
63527MONALISA THAIS MARTINS31F304431FXTF03:15:13
64403CARLA KRUGER DALL ALBA30F304432FMUD VIKINGS CASCAVEL03:15:16
65532TAMY KARINE PEREIRA31F304433FXTF03:15:18
66370LUCIANA CORTEZ DE QUEIROZ30F304434FHYPE03:21:39
67548PAULA IRIGON SALTINI31F304435FSUBWAY03:23:19
6863ADRIANE GARCEL33F304436FHYPE03:25:46
69477ANA PAULA ALVES DA SILVA27F202928FSTUDIO PILATES03:28:58
70545JACKELINE FERNANDA MARTINS17F14191F03:29:12
71364CAMILA MANTOVANI PEREIRA31F304437FGRUPO MANTOVANI03:31:20
72161MARINA PROENCA21F202929FAVULSO03:36:41
73344ANA CAROLINE MIRANDA28F202930FFACA NA CAVEIRA03:37:01
7494BRUNA SALVI27F202931FFACA NA CAVEIRA03:37:04
75306RAYSA GRAZIELA KARAS25F202932FDELTA FITNESS03:39:39
76305RAYET ISABELA KARAS26F202933FDELTA FITNESS03:39:40
77542KATLIN YUNIK MEZZOMO KUREISHI36F304438F03:39:54
78541SIMONE NAKAKOGUE DORNELAS35F304439F03:39:56
79543GISELE CAMPOS FERREIRA35F304440F03:39:56
80459TAMY LEMOS MATHIAS DE MORAES MARQUES27F202934FPROJETO SELVA03:40:18
81457MARCELE ROCHA33F304441FPROJETO SELVA03:40:22
82379FLAVIA APARECIDA DE OLIVEIRA30F304442FINUTEIS03:40:29
83482KARINA GIMENEZ KANIA29F202935FTEAM GO WELLNESS04:00:19
84483PRISCILA IWANOWSKI24F202936FTEAM GO WELLNESS04:00:22
85486SUELLEN MASSUCI ZAPP27F202937FTEAM GO WELLNESS04:00:45
86485RENATA BORDINAO24F202938FTEAM GO WELLNESS04:01:10
87389CALI TOLEDO GUERIOS27F202939FMADNESS04:06:30
88501ANA PAULA KNIESS PAGIOSSI38F304443FTIMEANA04:16:27
89503SHEILA WEBER MACHADO33F304444FTIMEANA04:22:19
90165KARINA DEL MORAL25F202940FAVULSO04:26:49

Elite Masculino


ColNumNomeId.Fx.Et.Cl.Fx.Sx.C.EquipeTempo
1546LEONARDO MEIRA28M2029-M00:55:53
2254RONALDO TOMAZ CORREA43M3044-MBUFALO01:07:27
33ALAN WERNER36M3044-MCINSIST CROSSFIT01:09:38
41883JORGE SOUZA JUNIOR32M30441M01:09:39
513EDUARDO CARVALHO DA CRUZ39M30442MAVALIARE SPARKO MARINGA01:11:09
6442JOÃO SOTER CORREA NETO27M20291MPONTO B PARKOUR01:11:22
7433JONAS OSORIO34M30443MPANAMA PAPERS01:11:35
8432NATANAEL TAVARES ALVES37M30444MPANAMA PAPERS01:12:11
9437DJEYSON ARNOLD27M20292MPARDUS CROSSFIT01:12:42
10441ERIC DA ROCHA SILVA SOARES32M30445MPE NO MUNDO ADVENTURE01:17:03
1111EDIVAN KOZEL34M30446MEDIVAN KOZEL01:17:24
12316WILLIAN ROGERIO SCARDANZAN32M30447MDJOSSO RUNNERS01:17:29
137DANIEL HOHMANN30M30448MDHANN01:19:30
146ANDRE COVOLAN37M30449MUNDERDOG01:19:41
152DIOGO SIQUEIRA33M304410MFACA NA CAVEIRA01:20:39
161DANILO TOSHIO OMURA26M20293MAVULSO01:21:13
17169FABIO SERGIO COSTA OLIVEIRA40M304411MAVULSO01:21:54
184ANDRE RAMOS30M304412MCCN ACADEMIA BRUSQUE01:22:15
1915CLAUDINEI ADRIANO FUCHS40M304413MAVULSO01:22:33
20261GREGORY AUGUSTO DA LUZ24M20294MCHALLENGETMBROLEXRUNNINGNICCO COACHING01:22:45
21332FELIPE DE CAMPO PAMPUCHE38M304414MFACA NA CAVEIRA01:23:19
22338VALMIR VIDOLIN29M20295MFACA NA CAVEIRA01:23:20
2328MATEUS MOACIR BONATO26M20296MSTUDIO ONE LIFE01:23:52
2439DENIS MASIERO JUNIOR22M20297MLEAO BRANCO01:24:16
2520ARNO ANDRE BACH35M304415MBACH01:24:26
26134ANISIO DE BRITO TRYECIAK40M304416MAVULSO01:24:38
27272WESLEY CRISTIAN DE ALMEIDA20M20298MCOSENZA TEAM01:25:01
28102ARISTEU JOSÉ DA SILVA27M20299M#FIREFEET01:25:08
295RODRIGO HAU FRANCA31M304417MPARDUS CROSSFIT01:25:17
3014CLAUDINEI ALVES DE JESUS28M202910MSTARTFIT01:25:21
31511HERISON RIBAS24M202911MVENICE01:26:18
3210FLAVIO ANDRE DOFF SOTTA48M45991MPOWER SPORTS01:28:04
33187PAULO RICARDO GALLE31M304418MAVULSO01:28:16
349ALESSANDRO ZEN34M304419MARS RUNNING01:28:35
3517ANDERSON JUNIOR BITTENCOURT41M304420MBITTENCOURTRUN01:30:17
36300RODOLFO DE PONTES22M202912MCWBULLS01:30:18
37504ERWIN ROJAS23M202913MTRAIN UP01:30:25
38139FABIO MACHADO BIASUZ32M304421MAVULSO01:31:44
39411CESAR AUGUSTO LIMA JUNIOR29M202914MNEVER STOP RUNNING01:33:33
4012MARCELO SANCHES37M304422MAVULSO01:34:18
4172ALCIDES FAVARETTO JUNIOR40M304423MBIOFILIA01:34:41
42443ARTHUR BELLINTANI17M14191MPONTO B PARKOUR01:34:55
4371WILLIAN THOMAS PILATO32M304424MSTUDIO ONE LIFE01:34:57
44378WELLINGTON RONNEY CARDOSO19M14192MINSPIRE01:35:48
4523BORTOLO SERA32M304425MDJOSSO RUNNERS01:35:54
4637REINHARDH DIETRICH SCHALCHER32M304426MAVULSO01:36:01
47251CLAUDIO BARBOSA DA SILVA48M45992MBOMBEIROS SP01:36:25
4844DONIZET SANTOS VIEIRA33M304427MSEVARB01:36:28
4922JOREU AZEVEDO ROMERO28M202915MAVULSO01:36:45
5052FABRICIO KONRAD VOZNIACK21M202916MSEVARB01:36:53
5118LEONARDO ALVES DOS SANTOS19M14193MBOLA RUNNING01:37:26
5224DIOGO CRESPI30M304428MAEON CROSSFIT01:38:02
53227KLEBER LUIZ XAVIER36M304429MAVULSO01:39:02
54465JONATHAN ALVES DE SOUZA30M304430MREQUINTE01:39:24
5527CASSIO DIAS DE ANDRADE JUNIOR25M202917MPONTO B PARKOUR01:39:52
56101ANDERSON GOMES DAS NEVES34M304431M#FIREFEET01:39:56
57462ANDRE DE OLIVEIRA38M304432MRECANTO DA NONA01:41:20
5841MARCELO LUIZ FORNAZARI22M202918MVITAL ENERGY01:41:24
59147ARNALDO ANTUNES JUNIOR47M45993MAVULSO01:42:01
60534TACITO MONTEIRO DE CARVALHO E SILVA32M304433MZEZAO01:42:35
61175ANTONIO MARCELINO36M304434MAVULSO01:42:43
62535PAULO ANDRE LOPES39M304435MZEZAO01:42:53
6380FREDERICO OLINGER ROCHA33M304436MNEVER STOP RUNNING01:42:56
64490GUILHERME ANDRE SEDREZ31M304437MTEAM TAVARES 18BPM BRUSQUE01:42:58
6579GABRIEL LIED31M304438MNEVER STOP RUNNING01:43:03
66324NATHAN MILLER DA COSTA24M202919MEQUIPE AMASSA ASFALTO01:43:41
6775MARCOS DAVID WERKA47M45994MACADEMIA TOTAL LIFE01:43:46
68385JESSE DE LIMA34M304439MLEAO BRANCO01:44:30
69297RODRIGO FREHSE PEREIRA33M304440MCROSSFIT PONTA GROSSA01:45:08
70317DIOGO SERA32M304441MDJOSSO RUNNERS01:45:13
71461CALEBE DOS SANTOS GARCIA34M304442MRAVELLO01:45:53
7245THIAGO FERNANDES32M304443MTEAMTF01:46:12
7386PAULO EDUARDO ZAPELINI30M304444MAVULSO01:46:51
7416RAFAEL LOBATO41M304445MUNDERDOG01:46:52
75159MATHEUS MILAN FERREIRA24M202920MAVULSO01:47:49
76137RAFAEL CAMPOS20M202921MAVULSO01:47:56
7721JOSE ANDERSON FEITOZA32M304446MAVULSO01:48:09
78538PAULO GUSTAVO FARCHI38M304447M01:48:24
7949HENRIQUE WALTRICK DE ALBUQUERQUE25M202922MBRAVES NUTS SHRINKER01:48:25
80128RAFAEL GONCALVES30M304448MAEON CROSSFIT01:49:19
8193DIEGO MIGUEL CHORNOBAY26M202923MFIVE ONE FITNESS01:49:33
82142STEFANO POLZIN GRASSO20M202924MAVULSO01:49:39
83189NIARO HATSCHBACH FREITAS26M202925MAVULSO01:49:46
841884JOSMAR SUDARIO33M304449M01:49:46
85174EMANUEL DA SILVA FARIAS29M202926MAVULSO01:49:52
8626CARLOS MACHADO CHARNEI24M202927MM4CROSSFIT01:50:01
87219DIEGO FERNANDES MODESTO30M304450MAVULSO01:50:09
88207JONAS SCHAEFER JUNIOR21M202928MAVULSO01:50:15
89290ANDRÉ AUGUSTO BORGES PASCHOALINO25M202929MCROSSFIT GRIFO01:50:25
90186KAIO VINICIUS MINELLA26M202930MAVULSO01:50:50
91530REINALDO MELLO DE OLIVEIRA25M202931MXTF01:50:56
92363PAULO JOSE DE OLIVEIRA44M304451MGRIFO CROSSFIT01:51:24
9382GUILHERME ARRUDA SANTOS32M304452MCF TRAINER01:51:27
94360JULIANO CEZAR MORONA26M202932MGASESNOSARES01:51:33
95172DIOGO DOS SANTOS23M202933MAVULSO01:51:35
96449JUAN LUCCA AVILA CORADASSI19M14194MPOWER SPORTS01:51:45
97195MAURO SANTOS30M304453MAVULSO01:52:33
98127TIAGO DELL AGNOLO31M304454MAEON CROSSFIT01:52:43
9938RAFAEL LIRIO BORTONCELLO29M202934MCHURROS01:52:59
100318CARLOS EDUARDO FEDRIZZI32M304455MEQUILIBRIUM01:53:01
101321RAFAEL GUEDES VILLAR33M304456MEQUILIBRIUM01:53:02
102319RODOLFO MANUEL FELICIANO30M304457MEQUILIBRIUM01:53:03
103211CELIO SANTOS DE PAULA37M304458MAVULSO01:53:11
10478MARCOS VINICIUS BOLIGIAN DE SOUZA27M202935MAWODLONDRINA01:53:28
105242FRANSCISCO GAUTO RAMIREZ32M304459MAVULSO01:53:37
106301JORGE LUIS PEREIRA RISSATTO33M304460MCWBULLS01:53:43
107447THALES GUERCHESKI ALMAGRO16M14195MPONTO B PARKOUR01:53:57
1081881DIOGO FERREIRA ANDRADE33M304461M01:54:35
109550ANDERSON DA MACENA31M304462MCROSS X01:54:36
110450CLOVIS HENRIQUE CORADASSI53M45995MPOWER SPORTS01:55:17
11199LUCAS MARCIUS BOSCHILIA E SANTOS30M304463MAVULSO01:55:19
112510RODRIGO FIORIN35M304464MUNIBRASIL01:55:47
113524GUILHERME AUGUSTO RUCK28M202936MXTF01:57:11
114466JADIR DA SILVA NETO25M202937MRHINOCEROS TEAM01:57:35
115467RAFAEL ALMEIDA DE MELLO34M304465MRHINOCEROS TEAM01:57:36
116231CAUE DA SILVA BRAGA25M202938MAVULSO01:57:43
117117FRANCISCO COELHO39M304466MA CZAP01:58:00
118505IGOR FELIPE SILVA REHBEIN26M202939MTRAINERPONTOB01:58:25
119235CARLOS ERON DA COSTA SOUSA38M304467MAVULSO01:59:07
12040ERICH GONCALVES DOS SANTOS ROCHA31M304468MFUNNY RUNNERS02:00:57
121230GUSTAVO ZILIO QUIOCA18M14196MAVULSO02:01:01
122236LUIZ FERNANDO DIAS TEIXEIRA19M14197MAVULSO02:01:07
123539ALYSON SUSSUMU TANAKA29M202940M02:01:13
124444NATHAN HENRIQUE DORNELLAS20M202941MPONTO B PARKOUR02:02:01
125131RAFAEL DIOGO THEISS30M304469MASTARFIT02:02:07
126263DIOGO BONA PEREIRA25M202942MCHUTEBOXE02:02:09
127279JONAS MYKYTCZUK JUNIOR21M202943MCRIS MOTORS TEAM02:04:04
128303YTALO ANTONIO RUFINO DOS SANTOS28M202944MDEADPOOL02:04:35
129157PAULO SERGIO VALENTE VALENTE59M45996MAVULSO02:04:43
130250ERICO CRISTIANO HASSELMANN39M304470MBOMBEIROS SP02:04:48
13148FELIPE CORDOVA CAMARGO25M202945MBRAVES NUTS SHRINKER02:05:05
132497LEONARDO ROCHA COSTA28M202946MTFTEAM02:05:12
133154ROBERSON MACHADO22M202947MAVULSO02:05:46
134190CHARLES MARCOS HILGENSTIELER42M304471MAVULSO02:07:15
135493KELMER MARTINS FIGUEIREDO39M304472MTEAMTITIUS02:07:21
136670LEANDRO LOMBARDI33M304473MFIVE ONE FITNESS02:07:49
137185JOBSON RICARDO DA SILVA DA COSTA29M202948MAVULSO02:07:54
1381799SANDRO ALVES SORDI38M304474MFIVE ONE FITNESS02:07:57
13955MAURICIO KAMINSKI MOTTER21M202949MPONTO B PARKOUR02:08:03
14056DENIS MASIERO44M304475MLEAO BRANCO02:08:10
141362FELIPE HENRIQUE DO NASCIMENTO27M202950MGRIFO CROSSFIT02:08:23
142262EDUARDO SILVA GARCIA34M304476MCHURROS02:08:38
143544CARLOS EDUARDO DE OLIVEIRA27M202951M02:09:25
14425DANIEL MAURICIO KUHN37M304477MVIKINGS02:10:48
145384EDER JUNIOR DA SILVA34M304478MLEAO BRANCO02:11:43
146280FABIO DE SOUZA35M304479MCROSS X02:11:44
147135CRISTIANO OLIVEIRA DE SOUZA37M304480MAVULSO02:12:10
148446ALEXANDRE BRESCIANI HALAGINSKI18M14198MPONTO B PARKOUR02:12:14
149265GLAUCO CORREA30M304481MCORREA TEAM02:12:47
150122HAUDYE RAFAEL DINI GAIOTO31M304482MACADEMIA R402:12:52
15183EDUARDO DOS SANTOS22M202952MACADEMIA IMPULSE02:13:06
152193FELIPE WHESLEY DAL SANTO25M202953MAVULSO02:13:07
153473WANDERSON RICARDO22M202954MRUNNERS ARAPOTI02:13:07
154454JONAS GABRYEL REDIVO23M202955MPRO KORPUS02:13:32
155387LUCIANO SANTI32M304483MLESAN MOVEIS PLANEJADOS02:13:33
156201MARCELO BISS DA CRUZ29M202956MAVULSO02:14:05
157132JULIANO RODRIGO DA COSTA34M304484MATLETA DE CRISTO02:14:32
158386CAETANO REIS31M304485MLEAO BRANCO02:15:41
159171RENILDO AGUIS BORGES JUNIOR23M202957MAVULSO02:15:47
160170LUIS CARLOS ZATTAR COELHO41M304486MAVULSO02:15:50
1611856FERNANDO LUIS FARIA34M304487MFIVE ONE FITNESS02:16:11
162299RICARDO CORREA DE ALMEIDA29M202958MCWBULLS02:16:22
163249DIOGENES LEANDRO DE OLIVEIRA37M304488MBISCOITTEAM02:16:45
164451RUDNEY MARCELO BERNARDI38M304489MPRO KORPUS02:16:57
16536ALEXANDRO DOUGLAS BRAUNS CARVALHO38M304490MSTUDIO 36002:17:44
166453GILBERTO ALVES BRAGA32M304491MPRO KORPUS02:18:34
1671879NEODI ANTONIO FRISON55M45997MAVULSO02:18:40
168408MARCELO ROCHA DE BASTOS21M202959MMUNDO FITNESS02:18:48
169100LEONARDO SUCKOW DISARO16M14199MMYSELFTEAM02:18:57
17091PAULO YVES TREVISAN DISARO48M45998MMYSELFTEAM02:19:05
171146MAX RAFAEL RATTMANN ROHRSETZER26M202960MAVULSO02:19:26
172496DYULEM PEDROSO23M202961MTERRIRÓRIO RUNNING SHOP02:19:39
17373LEONARDO REZENDE DE LIMA40M304492MCOSENZA TEAM02:20:44
174133JEFFERSON BASSANI31M304493MAVALANCHE02:22:10
175472SANDRO KOTARSKI32M304494MRUNNERS ARAPOTI02:22:30
176281JOAO PAULO RIBEIRO INNOCENTE36M304495MCROSS X02:23:02
177151MIGUEL ZAVILINSKI NETO36M304496MAVULSO02:23:11
17897MAYCON PEREIRA31M304497MCOSENZA TEAM02:23:21
179224NELCIR ANTONIO ROSSI57M45999MAVULSO02:23:44
180517AIRTON JOSE D O MACIEL21M202962MWOLS TACK02:23:59
181245EMIDIO MANUEL MEIRELES DOS REIS33M304498MBACALHAU SP02:24:00
182463RODRIGO DOS REIS SILVA28M202963MREIS TEAM02:24:08
183223VITOR PERCICOTTE24M202964MAVULSO02:24:09
184514ALISSON JHONATHAN SANTIAGO22M202965MWOLF PACK02:24:09
185184LUIS ALCI MENEZES FERREIRA JUNIOR35M304499MAVULSO02:24:21
186200ANDRE LUIZ CARDOSO DA SILVA28M202966MAVULSO02:24:27
18750BRUNO CARRARO FONTANA16M141910MPONTO B PARKOUR02:24:34
188256CARLOS ANTONIO MEDEIROS56M459910MCANELITEACADEMIA ACQUA FITNESS02:24:42
189322JORGE DAVID MAES JUNIOR35M3044100MEQUILIBRIUM02:24:52
190320JOAO HENRIQUE NEGRAO DE CASTRO55M459911MEQUILIBRIUM02:24:54
191445ARTHUR CORREIA ZABLONSKY15M141911MPONTO B PARKOUR02:25:05
19277FELIPE AUGUSTO CAVICHIOLO25M202967MGRALHA UFPR02:26:29
19329RAFAEL KENJI YONEMURA26M202968MAVULSO02:26:39
194409ALYSSON NAMBA27M202969MNAMBA TRAINING02:27:21
195410LUIZ CLAUDIO PIACENTINI50M459912MNAMBA TREINING02:27:21
196295KEVIN ANDREY25M202970MCROSSFIT JOINVILLE02:28:51
1978GREGUE FAUSTO GONCALVES32M3044101MGREG MOTIVATION TEAM02:28:52
198292MATHEUS SALVADOR NUNES27M202971MCROSSFIT JOINVILLE02:28:53
199293LUAN DA LUZ SILVA29M202972MCROSSFIT JOINVILLE02:28:53
200296RENATO BRUNO FUHRMANN FILHO28M202973MCROSSFIT JOINVILLE02:28:53
201291DAVID GILI VIEIRA36M3044102MCROSSFIT JOINVILLE02:28:55
202221RENATO AUGUSTO MARIOTTO28M202974MAVULSO02:29:22
203203MARLON MAY MACIEL21M202975MAVULSO02:30:01
2041882THIAGO AUGUSTO CAMPOS MACEDO31M3044103M02:30:31
20584DEYVID OTAVIO ZATTON29M202976MAVULSO02:30:37
206160DANIEL SEPRENY GUIMARAES DA SILVA28M202977MAVULSO02:30:40
207126JORGE LANG JUNIOR36M3044104MAEON CROSFIT02:31:19
208399IGOR DITZEL KRITSKI35M3044105MMUD VIKINGS CASCAVEL02:31:46
209397JOSE ALBERTO BARDDAL DRUMMOND33M3044106MMUD VIKINGS CASCAVEL02:31:47
210402LUIZ PAULO CALIXTO MARCHESE29M202978MMUD VIKINGS CASCAVEL02:31:47
211512JULIO ROMANO HERMES50M459913MVIKINGS02:32:22
212494ARNOU TORRES27M202979MTERRIRÓRIO RUNNING SHOP02:32:33
213495ALISSON HENRIQUE MIQUELETO27M202980MTERRIRÓRIO RUNNING SHOP02:32:34
214163ERIK EDUARDO LUEDERS25M202981MAVULSO02:32:35
215162GUILHERME PETERS26M202982MAVULSO02:32:37
216258DANIEL MALTA KURTINAITIS37M3044107MCCAV9802:33:46
217259ALEKSANDERS MIRRA NOVICKIS37M3044108MCCAV9802:33:46
21876WILSON OSMAR DAMS JUNIOR33M3044109MACADEMIA TOTAL LIFE02:33:53
21988JONATA KUHNEN24M202983MAEON CROSSFIT02:35:27
220129ANDRE FELIPE RIEG29M202984MAEON CROSSFIT02:35:28
221205JOSE LUIS PEDRO LEITE30M3044110MAVULSO02:36:05
222377JEAN RUANITO CARDOSO DE JESUS27M202985MHYPER LAPA02:36:25
223375JOAO FERNANDO DE MELLO BARBOSA23M202986MHYPER LAPA02:36:27
224529RAFAEL MAFRA36M3044111MXTF02:39:31
225107LEANDRO RODRIGUES DOS SANTOS31M3044112M#FIREFEET02:40:46
226518MARCO BALOD BEDUACHI28M202987MXTF02:41:26
227238DANILO GONCALVES PEDRO27M202988MAVULSO02:41:28
228430HERICK WILLIAN DA COSTA17M141912MOS PERDIDOS02:41:34
229429GIULIANNO DE SOUZA35M3044113MOS PERDIDOS02:41:37
230152PATRICK SAMIS BATISTA23M202989MAVULSO02:42:17
231228EDUARDO STICA RITZDORF DE MELLO28M202990MAVULSO02:43:09
232141FABIO SANTOS39M3044114MAVULSO02:43:33
233178EDUARDO DELFINO DOS SANTOS35M3044115MAVULSO02:44:18
234179WELLINGTON DA SILVA37M3044116MAVULSO02:44:20
235177RINALDO SANTANA DO NASCIMENTO41M3044117MAVULSO02:44:33
236209MURILO WOEHL27M202991MAVULSO02:44:46
237220JULIANO ZANDONA30M3044118MAVULSO02:44:47
238436ANDRE VALENTIN WOSNIAK30M3044119MPARDUS CROSSFIT02:44:52
239348MAURICIO VENANCIO SPERANDIO37M3044120MFERA02:46:50
24061MARCIO MORENO LUIZE37M3044121MFERAO02:46:59
241351FERNANDO S.FERREIRA27M202992MFOX RUN02:47:25
242350FELIPE KARLOKOSKI24M202993MFOX RUN02:47:26
24333FERNANDO COSTA29M202994MTEAM GO WELLNESS02:48:16
24459DIEGO BARRAS LOURENCO29M202995MBATUTINHAS02:48:21
245278SAMUEL CARAMORI DE FIGUEIREDO32M3044122MCOSENZA TEAM02:48:24
246270ALISSON VIEIRA DA SILVA28M202996MCOSENZA TEAM02:48:25
247274ANDRE LUIZ HERRERA NOBREGA28M202997MCOSENZA TEAM02:48:25
248275ROBSON CLAYTON ALMEIDA DE NOBREGA35M3044123MCOSENZA TEAM02:48:25
249173JESSE RODRIGUES DA SILVA31M3044124MAVULSO02:48:26
250183TIAGO DA SILVA25M202998MAVULSO02:48:26
251232ANDREI SILVEIRA PEREIRA24M202999MAVULSO02:49:47
252475CELSO FERREIRA DOS SANTOS30M3044125MSPARTANS02:49:51
253452NEWTON LUCAS LUBACHESKY20M2029100MPRO KORPUS02:50:11
254214SILVIO FOLMANN CHERNHAK36M3044126MAVULSO02:50:34
255468GUILHERME NIEMIETZ24M2029101MRIPA NA XULIPA02:51:13
256326BRUNO FERRARI AIFELD22M2029102MFACA NA CAVEIRA02:52:09
257330DANILO PADILHA CANTIDO30M3044127MFACA NA CAVEIRA02:52:10
25890DANYEL JOSE BIELAH24M2029103MAVULSO02:52:54
259155PAULO SERGIO ROGOZA VALENTE21M2029104MAVULSO02:52:58
260266JULIANO JOSE SANTOS GONÇALVES43M3044128MCOSENZA TEAM02:53:58
26153RAFAEL EDUARDO SIMOES DE ALMEIDA32M3044129MA TEAM JRMD02:54:01
262120DANIEL GUSTAVO MARQUES DO NASCIMENTO42M3044130MA TEAM JRMD02:54:02
263153LEONARDO MENA CADORIN31M3044131MAVULSO02:55:09
26434BRUNO PINTO29M2029105MTEAM GO WELLNESS02:55:41
2651878FABIANO FRISON32M3044132MAVULSO02:55:54
266513FELIPE LOPES DE SOUZA25M2029106MWOLF IGUASSU02:56:20
267130MARCIO DE OLIVEIRA JUNIOR31M3044133MALTER CORPUS02:58:27
268480PAULO EDUARDO ROMANO30M3044134MTEAM GO WELLNESS03:01:13
26932THIAGO SANTOS28M2029107MTEAM GO WELLNESS03:01:17
270346IVENS FRISCHKNECHT51M459914MFCBELITE TRIATHLON03:01:42
271383DANILO GALVANI CARDOSO22M2029108MJGVLGCULC03:02:09
272237ERASMO ARRUDA VAZ33M3044135MAVULSO03:03:00
273123MICHEL MARKES24M2029109MACADEMIA R403:03:02
274222GUILHERME GUSTAVO DA SILVA25M2029110MAVULSO03:03:13
275337ALISON LUIZ MENDES31M3044136MFACA NA CAVEIRA03:03:27
276371BRUNO PALAZZO33M3044137MHYPE03:03:35
277202RICARDO SLIVA21M2029111MAVULSO03:04:22
278276MARLON SUBTIL PAZINATO27M2029112MCOSENZA TEAM03:04:48
279218DIEGO CRISTIANO ANDERLE27M2029113MAVULSO03:05:05
280150VINICIUS COSTA29M2029114MAVULSO03:05:45
28130ANDRE RICARDO ROSSI21M2029115MCANELITE03:05:47
28231FELIPE FORMENTAO20M2029116MCANELITE03:05:47
28347ALEX SANDRO ANDERSON DONIN31M3044138MCANELITE03:05:47
284528RAFAEL LEONES DO NASCIMENTO24M2029117MXTF03:06:57
28589GUSTAVO MEINECKE27M2029118MXTF03:06:58
286521ANDERSON VIEIRA THOMÉ29M2029119MXTF03:07:00
287287ROMULLO SONSIN AGUIAR31M3044139MCROSSFIT ARAUCARIA03:10:08
288390RICARDO RIBAS MACHADO28M2029120MMANINHA03:10:40
289391SERGIO LUIZ RIBAS MACHADO51M459915MMANINHA03:10:41
290392MARCOS AURELIO30M3044140MMANINHA03:10:41
291298JOAO GABRIEL FERRARI KFFURI37M3044141MCROSSFITARAUCARIA03:11:23
292329DHIEGO DA CUNHA INHAIA28M2029121MFACA NA CAVEIRA03:12:52
293252THIAGO RODRIGUES DIAS33M3044142MBROTHERS TEAM03:14:37
294412ANDRÉ FELIPE BRONHOLO29M2029122MNICCO COACHING/BROLEXRUNNING03:14:43
295253VITOR DIAS DE ALMEIDA22M2029123MBROTHERS TEAM03:14:45
296212PEDRO KUPKA SCHNEIDER23M2029124MAVULSO03:15:01
297419FERNANDO DEPIERI37M3044143MNICCO COACHING/BROLEXRUNNING03:15:08
298525HERCILIO WALDEMARO31M3044144MXTF03:15:14
299407LUIZ FELIPE27M2029125MMUD VIKINGS CASCAVEL03:15:50
300216MURILO ROMANI FOGACA DE SOUZA22M2029126MAVULSO03:16:00
301448JOÃO VINICIUS JUSTO17M141913MPONTO B PARKOUR03:17:55
302533ABILIO H JUNIOR45M459916MXXX03:17:56
303341EDUARDO DE CAMPOS PAMPUCHE23M2029127MFACA NA CAVEIRA03:18:11
304167EDUARDO NOVICKI DE OLIVEIRA26M2029128MAVULSO03:18:17
305192HEVERSON CARLOS RAMOS GUERBER25M2029129MAVULSO03:18:18
306366BRUNO EDUARDO MARTINS CABRAL37M3044145MHYPE03:19:14
30764RUI CESAR DE BITTENCOURT DRUSZCZ34M3044146MHYPE03:19:38
308474ALEXANDRE SCHWOCHOW FISSMER24M2029130MSINISTRO03:20:50
309334RICARDO ALMEIDA PEREIRA37M3044147MFACA NA CAVEIRA03:20:59
310367BERNARDO FARINHAKI29M2029131MHYPE03:21:41
311229GUILHERME THIAGO FERREIRA MENEZES26M2029132MAVULSO03:22:38
312549RODRIGO BEAL MATIAS24M2029133MSUBWAY03:23:18
313246AURELIO ASTOLFI DO ROSARIO VIEIRA33M3044148MBACALHAU SP03:24:29
314144EDGAR BATALHA DA COSTA32M3044149MAVULSO03:24:33
315244GUSTAVO FERNANDES PEREIRA30M3044150MBACALHAU SP03:24:53
31666FILIPE DA COSTA CASAGRANDE23M2029134MFACA NA CAVEIRA03:28:44
31769MARLOS DANIEL HATHY35M3044151MFACA NA CAVEIRA03:29:27
318342VICTOR HUGO CARVALHO33M3044152MFACA NA CAVEIRA03:29:29
319421DOUGLAS RODRIGUES30M3044153MNICCO COACHING/BROLEXRUNNING03:31:03
320506MATHEUS WILHLEM SIQUEIRA18M141914MTROPA SENIOR KARIB03:36:28
321507ARTHUR VINICIUS RAMOS DIONIZIO17M141915MTROPA SENIOR KARIB03:36:29
322369RENAN ZAPPE BUENO26M2029135MHYPE03:36:42
32398CARLOS EDUARDO TEIXEIRA34M3044154MFACA NA CAVEIRA03:37:01
324311NICOLAS DE SOUZA BARBOSA21M2029136MDELTA FITNESS03:39:38
325308ADENILSON MARTINS LOPES25M2029137MDELTA FITNESS03:39:40
326307ANDREO DE FREITAS23M2029138MDELTA FITNESS03:39:41
327309GUILHERME CARIAS DE OLIVEIRA25M2029139MDELTA FITNESS03:39:41
328314RODOLFO YURI BAUMEL20M2029140MDELTA FITNESS03:39:48
329372VITOR CARLOS DE SOUZA FREITAS32M3044155MHYPE03:40:18
330381LUCAS EDUARDO BELON23M2029141MINUTEIS03:40:29
331382DAIMON DE LIMA COSTA25M2029142MINUTEIS03:40:33
332458MARIO SERIO RIBEIRO DIAS31M3044156MPROJETO SELVA03:46:41
333455PEDRO HENRIQUE VAZ CALDAS DE SIQUEIRA VASCONCELOS27M2029143MPROJETO SELVA03:46:42
334394LEONARDO OSINSKI18M141916MMECANICA UFPR03:59:39
335395GUILHERME ANTONIO BEUREN CORDEIRO18M141917MMECANICA UFPR03:59:42
336488MARCOS PAULO PEREIRA28M2029144MTEAM GO WELLNESS04:00:21
337487EDUARDO GODZIKOWSKI29M2029145MTEAM GO WELLNESS04:00:46
338481ANDRE FRANCISCO PAIVA DE ALMEIRA28M2029146MTEAM GO WELLNESS04:00:47
339484RENAN CASAGRANDE26M2029147MTEAM GO WELLNESS04:01:11
340388EDUARDO LUIS NORENBERG32M3044157MMADNESS04:06:30
341352MARCOS VINICIUS DE SOUZA29M2029148MFRENDES RUN04:15:33
342354LUCIANO MAURIZIO VICENTINI PUCCI19M141918MFRENDES RUN04:15:35
343356FABIO RIBEIRO REIS35M3044158MFRENDES RUN04:15:35
344353JOAQUIM EDGAR PUCCI JR47M459917MFRENDES RUN04:15:38
345148RODRIGO AUGUSTO BALDASSO25M2029149MAVULSO04:16:06
346502WILLIAM PINHEIRO CASSARRO31M3044159MTIMEANA04:16:13
347498RONALDO BARANDRECKT35M3044160MTHE PLANNERS04:17:38
348499VINICIUS PIOVEZAN DISSENHA25M2029150MTHE PLANNERS04:18:20
349500ROBSON FRANCISCO25M2029151MTHE PLANNERS04:18:21
350140RICHARD HORTA LOPES MOREIRA20M2029152MAVULSO04:22:07
351164JAMIL AMIR TANUS30M3044161MAVULSO04:22:16
352491THIAGO PITTA PENNA40M3044162MTEAMANA04:22:17
353302MATHEUS ARON VELASQUES27M2029153MCWBULLS04:25:46
354113ROSINALDO NOGUEIRA SOARES39M3044163M#FIREFEET04:31:12
355423BRUNO MOZELESKI38M3044164MNICCO COACHING/BROLEXRUNNING04:33:46

For Fun Feminino


ColNumNomeSx.Idd.FaixaCl.Fx.EquipeLiquido
11759DEBORA SCHONDERMARKF31F30441AVULSO01:12:19
21423PAMELA REGINA PEREIRAF26F20291FULLTRAINNING01:12:26
31421CASSIANA MAZANEK TOLEDO DE SOUZAF32F30442FULLTRAINING01:12:28
41450KAREN POLLYANE FERREIRAF22F20292PONTO B PARKOUR01:12:31
51268ELIANE CAMARGO CESAR MARCINIUKF44F30443UHUUU MUD RUNNERS01:28:01
61269ONDINA ILDA VICENZIF34F30444UHUUU MUD RUNNERS01:28:02
7963MARIA LUCIA ZANETTIF39F30445OS GRAVATAS01:28:04
8710ALINE ESTHER GOMES DO NASCIMENTOF31F30446FREDSTONES01:31:02
9759DANIELA TOCZEK DAL NEGROF38F30447RONALD/SANDRINI01:31:45
10725KATIA CRISTINA DE SOUZA CHAGASF31F30448IV TEMPORA01:32:23
11807CAROLINA FERNANDA TESTONIF31F30449XTF01:33:34
121733GABRIELA TOLEDO DESIDERIOF32F304410TEAM TITIUS01:38:12
131760DENISE PESSATTIF32F304411AVULSO01:42:56
141785VANESSA SBORZF28F20293AVULSO01:42:56
151833JULIANA GUBER BOGOF23F20294TRP01:43:37
161000JOSIANE KARINA NICHELE BONATOF39F304412STUDIO ONE LIFE01:45:58
171626NAIHARA WACHTERF26F20295CHURROS01:46:27
181790MARIA ANGELINA SILVEIRA DE SOUZAF32F304413COMPANHIA DA CORRIDA01:48:28
19605SANDRA MARA MENEZESF55F45991AVULSO01:49:43
20577DENISE DE CARVALHO COLACOF52F45992AVULSO01:49:44
211409SANDRA CRISTINA VIEIRAF48F45993ENERGIAJF01:51:40
221007ROSANGELA PEREIRA BOLLMANNF40F304414STUDIO ONE LIFE01:53:38
23987BARBARA ADRIANNE ZANELLO BROSKAF30F304415STUDIO ONE LIFE01:53:42
24765JULIANA MARINHO MARTINS AFFORNALIF37F304416RONALD/SANDRINI01:55:00
251271ANNE ANDRESSAF32F304417VIDA ATIVA01:55:52
261596MARINA MANSUR COELHOF19F14191AVULSO01:56:22
271839VIVIAN ROSA SALESF36F304418V801:56:33
281299CAMILA BAOF25F20296AVULSO01:58:40
291357MARGARETH PILLSKYF31F304419AVULSO02:00:12
30565ANDRESSA VALENCIOF19F14192AVULSO02:00:25
31551MARIA ELIZA CAROLINE VALENCIOF25F2029702:00:26
321065ANA MARTHA DE MENEZES LENZIF38F304420AVULSO02:02:08
33812TERESINHA A. HACKF49F45994XTF02:02:52
34984FABIANA DIAS FRANZENF24F20298SLOTH02:04:01
351394HELIDY MARIA ROSSI SALLES DE CAMARGOF34F304421CHOICE02:04:36
361393CAMILA JUNGLESF27F20299CHOICE02:05:24
371396ELLEN CRISTINE HRYCKIWF37F304422CHOICEFUNCIONAL02:05:24
381529ELOISE ANDRÉIA DOS SANTOSF31F304423#FIREFEET02:10:38
391534KATIALOANA RAMOS MENDONCAF50F45995A02:10:47
40663EMILY LINDSEY PILATOF22F202910FIVE ONE FITNESS02:11:17
411031FERNANDA ROBERTA FARDIN RUBERTF24F202911WATNER02:11:33
42954FRANCE LAILA SELMERF38F304424OS GRAVATAS02:11:45
431810NATHALIE LANG GOLARTF32F304425HYPER LAPA02:12:19
441809ALESSANDRA AMARO MENDESF32F304426HYPER LAPA02:12:20
451030GIOVANNA MILANOF29F202912TRANSMITINDO FORÇA02:13:47
46834ANA CAROLINA GONCALVES MOREIRAF30F304427AVULSO02:13:50
471752ANA CLAUDIA ESCORCIOF35F304428AVULSO02:19:16
481711REGINA AUGUSTO FLANDOLIF37F304429RP02:19:58
491055MARINEUSA LIBERATO BASSANIF54F45996AVALANCHE02:20:46
501307DANIELA DIKSZTEJN DA SILVAF31F304430AVULSO02:21:33
511053EMILLYN CAROLINE DE OLIVEIRAF17F14193AVALANCHE02:21:35
521155THAMARA REGINA PEREIRAF22F202913AVULSO02:22:15
531757CAROLINE KUGLER BATISTA DA SILVAF23F202914AVULSO02:22:34
541407MARIANA CASTRO SILVEIRA FIGUEIREDOF27F202915CROSS X02:22:43
551783TAYNAH BASTOS LIMA DA SILVAF28F202916AVULSO02:22:53
56591LOUISE FERNANDA SANTOS BISCAIA DE CHAVESF27F202917AVULSO02:24:27
571504MILENA PRENDIN NAVARROF30F304431TREKKING MARINGA02:24:59
581496ANA MARIA FAGUNDES DA SILVAF32F304432TREKKING MARINGA02:25:00
591497ANA PAULA ZIBETTIF29F202918TREKKING MARINGA02:25:00
601204ALINE POLZIN GRASSOF24F202919GOLD RUNNERS02:25:11
61810JOAO HENRIQUE R. WOLFFF27F202920XTF02:25:51
621273CLAUDIA RAFAELA MARQUES FIRMOF29F202921XTF02:27:13
631272CAROLINE DE FATIMA ULISSESF29F202922XTF02:27:14
64813RONISSE BRESSAN DE LIMAF33F304433AEON CROSSFIT02:27:15
651133PAULA CAROLINA POLAKOSKIF30F304434AVULSO02:28:03
661764GABRIELLA GUNTOWSKI BADUYF16F14194AVULSO02:28:24
671819JANAINA MINATTIF31F304435STUDIO DAL FARRA02:29:03
681503LUCIANA ALDEMY GADELHA DE CARVALHOF34F304436TREKKING MARINGA02:29:16
691838VALCIRENE SOUZA BORGESF39F304437UNIVIDA02:29:19
70781LUCIANE CORREA CLARINDAF31F304438TEIXEIRA TEAM02:29:38
711193MARIA JULIA WOLSKIF17F14195CROSSFIT PONTA GROSSA02:29:46
721500GISLAINE GUILHERME TOLEDOF39F304439TREKKING MARINGA02:30:38
731601PAOLA MANZIF21F202923AVULSO02:30:44
741061ALINE SABRINE BRANDEMBURGF30F304440AVULSO02:31:38
751347LETICIA SOBERANSKIF20F202924AVULSO02:31:53
761289ALYSSON LUIZ DA SILVAF24F202925AVULSO02:33:40
77730CECILIA LESZCZYNSKI GUETTERF27F202926LOS BRABOS02:33:55
78895GIOVANA DE ALMEIDA FRANCAF44F304441CROSSFIT PONTA GROSSA02:35:41
791693JUSSARA TAUFER DOMBROSKIF47F45997HYPER LAPA02:35:59
801696TATIANA BUSKEF23F202927HYPER LAPA02:36:00
811695NICOLE DOMBROSKIF19F14196HYPER LAPA02:36:02
821789MARIA TICIANA CAMPOS DE ARAUJOF39F304442CIRCOCAN02:36:42
831552DANIELLE MORAES DA SILVAF31F304443AVULSO02:37:15
841613SABRINA MARQUES MONTEIROF28F202928AVULSO02:37:26
851816DAIRA EZENIR CORDEIROF43F304444STUDIO DAL FALRRA02:38:11
861817ALINE HENINGF29F202929STUDIO DAL FARRA02:38:12
871818JACIANARA CORDEIRO SCHMITTF34F304445STUDIO DAL FARRA02:38:13
881542ANA LUIZA ANDRADEF22F202930AVULSO02:39:29
891021KATHRYN CRISTINE DE SOUZAF37F304446TALIBA02:40:18
901154THAIS DE ANDRADEF31F304447AVULSO02:40:24
911096GISARELI SANTOSF26F202931AVULSO02:40:26
921019FRANCIELI APARECIDA DRESSLERF20F202932TALIBA02:40:37
931018ELIZANDRA DO CARMO KOKOTTEF39F304448TALIBA02:40:38
941017ANNA PAULA MOURAF27F202933TALIBA02:40:39
951251PATRICIA KOTARSKIF37F304449RUNNERS ARAPOTI02:40:49
961402MARCELA FRANCIS ELIASF24F202934COMANDO PAROLA BRUTUS02:41:21
971631LUCILENE DE FATIMA MARTENDALF33F304450CROSS FIT PONTA GROSSA02:41:28
981403PRISCILA BEATRIZ RIBEIROF24F202935COMANDO PAROLA BRUTUS02:41:36
99896LILIAN ESTEVES MARIAF33F304451CROSSFIT PONTA GROSSA02:42:07
100806CARINE CASTILHO DA SILVAF30F304452XTF02:42:16
101808CLARISSE MICHELE NEUMANN BEILERF33F304453XTF02:42:17
1021533MARÍLIA DO CARMO DOLCIF25F202936#FIREFEET02:42:31
1031181LUCILENE DO ROCIO PURKOTF55F45998COMEMOS LAMA MAS NAO POEIRA02:43:09
1041183TAMIRIS DOS SANTOS SILVAF29F202937COMEMOS LAMA MAS NAO POEIRA02:43:13
1051120LUCIANA METZGER LOPESF37F304454AVULSO02:43:17
1061146ROSANGELA M ANDRADE HARDOINF39F304455AVULSO02:43:33
1071571GRACIELE GORTE KUHN TONELF29F202938AVULSO02:43:49
1081586LETICIA GORTE KUHN JECZMIONSKIF28F202939AVULSO02:43:51
1091651SANDRA NOVAKF30F304456EQUIPE PRO CORPOS02:43:56
1101652TAMMY SCHULZ CHIARELLIF25F202940EQUIPE PRO CORPOS02:43:57
111944ANNY CAROLINI RIBERIRO RAABF34F304457OS GRAVATAS02:44:25
112965PRISCILA FERELLI MAIAF30F304458OS GRAVATAS02:44:28
1131547CAROLINE ELZA ZOLET SASSOF35F304459AVULSO02:44:30
1141556EDINARA SABAKEVISKI GLINSKIF36F304460AVULSO02:44:30
1151610ROBERTA GABRIELA MAINARDES REZENDEF26F202941AVULSO02:46:24
1161550DAIANE CRISTINA ALMEIDAF27F202942AVULSO02:46:27
117995FRANSCIELLE ALINE STICKLINGF28F202943STUDIO ONE LIFE02:46:32
1181598MAYSA BITTENCOURTF28F202944AVULSO02:46:36
1191010SUELLEN RIBEIRO PERESF28F202945STUDIO ONE LIFE02:46:38
120722RENATA DIAS DOS REIZF30F304461FREDSTONES02:46:47
121879TATIANE MONTEIRO DE SAO MIGUELF27F202946AVULSO02:46:57
1221602PATRICIA PEREIRA VALENGAF26F202947AVULSO02:46:57
123779CINTIA MORENO BOTINIF30F304462TEIXEIRA TEAM02:47:10
1241254THAIS DIAS DE LIMAF37F304463STUDIO PERSONAL THAIS LIMA02:47:26
1251257JULIANE MANSANO DE OLIVEIRAF27F202948STUDIO THAIS LIMA02:47:28
1261252THAMIRES BARAOF29F202949STUDIO PERSONAL THAIS LIMA02:47:29
1271151SIMONE MOHR DALMASF39F304464AVULSO02:47:51
128838CAMILLE CANABARRO CASAGRANDEF19F14197AVULSO02:49:28
129841CRYSTIANNE INDENA PRIRES FIGUEIRAF35F304465AVULSO02:49:28
130574CRISTIANE DE ANDRADEF35F304466AVULSO02:49:31
1311071BIANCA TCHORNEIF25F202950AVULSO02:49:32
1321101JESSICA ZIMKOVICZF24F202951AVULSO02:49:32
1331209MARIA GABRIELLA GIROTOF35F304467IGUANA02:49:46
1341786XENIA SAVIATTO FAGUNDESF32F304468AVULSO02:49:55
1351782SABRYNE FERNANDES BINIF23F202952AVULSO02:49:58
136561AMANDA BERTOLO MERKIF28F202953AVULSO02:50:03
1371569GABRIELA KIRSCHF29F202954AVULSO02:50:19
1381595MARILIA FERNEDAF29F202955AVULSO02:50:23
1391368PRISCILLA QUINOLI BECKERF25F202956AVULSO02:50:25
1401419GABRIELA SERRANOF21F202957FULL TRAINING02:51:25
1411064ANA LETICIA GUERRAF36F304469AVULSO02:51:34
142691ELAINE T. MORAISF38F304470FOX RUN02:52:29
1431369RAFAELLA ELKHATIB FIANDANESEF25F202958AVULSO02:52:31
1441385MARIANA ELKHATIB FIANDANESEF22F202959AVUSLO02:52:32
145590ISABEL CRISTINA GAWLOSKIF48F45999AVULSO02:52:36
1461841LAIS MERCER COBLINSKIF22F202960VAI FILHAO02:53:13
147615JESSICA MUZEKA NOSKOSKIF25F202961CERVEJANTES02:53:15
1481689CLARISSA BERNARDELLIF28F202962GUSTAVO FERES02:53:27
1491669ISABELLE GASPARETTO LEITEF25F202963GRALHA UFPR02:53:48
1501740JAQUELINE KROHLING EICHF23F202964WIDIA02:53:48
1511742MARIA EDUARDA TABALIPA TREVISANIF17F14198WIDIA02:53:49
1521741MARCIA REJANE VIEIRA MARCONDESF52F459910WIDIA02:53:50
153784MARILIN ROSANA MUNHOZ DA SILVA WERKAF39F304471TOTAL LIFE02:54:08
1541565FERNANDA LYRIO CASTROF34F304472AVULSO02:54:08
155783ARYANE SPADOTTOF26F202965TOTAL LIFE02:54:10
1561116LUANA DE OLIVEIRA PADILHAF17F14199AVULSO02:54:31
1571091FRANCIELI FERREIRA DA COSTAF26F202966AVULSO02:54:44
1581145ROSANA SOARES TYMUSF39F304473AVULSO02:55:16
159890TARLIS SUELEN MOURA FAEF30F304474CROSSFIT CIANORTE02:55:20
1601558ELAINE CRISTINA RIBEIRO ROSAF38F304475AVULSO02:55:57
161910NICOLLE AMBONI SCHIOF27F202967HPP02:56:07
1621341KARLA HERRERA DE SOUZAF24F202968AVULSO02:56:38
1631377TAINARA GRANDOF27F202969AVULSO02:56:46
1641327FRANCIELE GRANDOF30F304476AVULSO02:56:58
1651771LARISSA KANIAKF31F304477AVULSO02:57:21
1661362NICOLE BISCAIA DA SILVAF29F202970AVULSO02:58:22
167911RAFAELA WAGNERF26F202971HPP02:58:34
1681704GEISIANE CAMILE ROSAF20F202972PARDUS CROSSFIT02:58:37
1691802ALESSANDRA M OKINOF43F304478FLAVIO MAIA TEAM02:58:54
1701803CAMILA LUMI KAZUMAF26F202973FLAVIO MAIA TEAM02:58:57
171848GABRIELA LOOS DUARTE BLANCOF26F202974AVULSO02:59:04
172842DALVANA MARTA HUGUEF28F202975AVULSO02:59:39
1731773LETICIA SANTOS BUENOF23F202976AVULSO03:00:02
1741660FRANCIELE RIZZO DO AMARANTEF34F304479FORCA TAREFA03:00:04
1751661GRAZIELA GOULART LIMAF32F304480FORCA TAREFA03:01:24
1761657DANIELA MAKI DE SOUZAF23F202977FORCA TAREFA03:01:39
1771800VANESSA DO ROCIO KOVALSKIF28F202978FIVE ONE FITNESS03:01:50
1781683LAIS FAVA EMERYF19F141910GUERREIROS FIT03:02:41
1791682KEILLY FAVA DOMINGUESF30F304481GUERREIROS FIT03:02:43
180618ADNILEM APARECIDA CAETANO MACHADOF36F304482COSENZA TEAM03:03:04
181631PATRICIA RUELI KERSCHERF37F304483COSENZA TEAM03:03:04
182630PAMELA MOREIRA PINHOF33F304484COSENZA TEAM03:03:12
183619ANA CRISTINA DENIZ BONATF38F304485COSENZA TEAM03:03:17
184628KELLY CRISTINA PILAR RAMOSF31F304486COSENZA TEAM03:03:17
1851049JAMILLE DO PILAR CECYN MILLERF30F304487ANTUERPIANS03:03:29
1861050JULIANA PONTES ALVES DE OLIVEIRAF27F202979ANTUERPIANS03:03:31
1871701MIRIAN CABRINI DAYF29F202980MIRIAN03:03:32
1881700DANIELI CLAROF32F304488LEONES03:03:35
1891266TAMIRES APARECIDA JABONSKIF26F202981TURMA DO BARRO03:03:59
1901581KELLY DA CRUZ FREITAS DA SILVAF36F304489AVULSO03:04:04
191608VALERIA FERREIRA DE ARAUJOF32F304490AVULSO03:04:14
192795LORENA DA SILVA SOLERF23F202982TURMA DO BARRO03:04:35
1931359MELLICA DELFINO DE CARVALHOF37F304491AVULSO03:04:47
1941537ANA PAULA PETRAZZINIF37F304492AVULSAO03:04:48
195745LOUISE CARNIERIF26F202983LOS BRABOS03:04:50
1961380VANESSA GHEDIN SPERANDIOF33F304493AVULSO03:04:54
1971285AGLACY LOCATELLI CHOMAF62F459911AVULSO03:05:16
1981424LUCIANE DUTRA MOTTAF27F202984ITAPOA BEACH03:05:19
1991291ANDREA CRISTINA LOPES DE OLIVEIRAF39F304494AVULSO03:05:22
200794LETICIA DA SILVA SOLERF24F202985TURMA DO BARRO03:05:36
201796LUANI CRISTINE RIZZO DIASF24F202986TURMA DO BARRO03:05:42
2021366PRISCILA FIGUEIREDO MARTINSF23F202987AVULSO03:05:42
203801TUANI CRISTINI RIZZOF24F202988TURMA DO BARRO03:05:56
204711AMANDA CASORIA BOABAIDF21F202989FREDSTONES03:06:11
205666INGRID DAYANE BORGES PACHECOF30F304495FIVE ONE FITNESS03:06:33
206787ANA BAUERF28F202990TURMA DO BARRO03:06:51
207976ELIANA GOMESF43F304496PONTO B PARKOUR03:06:53
208979TAMYRIS WEISSF26F202991PONTO B PARKOUR03:07:05
2091293ANDRESSA KROTH EITELVANF32F304497AVULSO03:07:13
2101379UYARA LENZI DE ANDRADEF34F304498AVULSO03:07:14
211757SIMONE DE ALMEIDA GOMESF41F304499PONTO B PARKOUR03:07:26
2121114LETICIA FERRARINIF28F202992AVULSO03:08:07
2131111KAREN CHARLLOTE GOMES MACEDO FARIONF25F202993AVULSO03:08:25
214731DANIELLE PRESTESF33F3044100LOS BRABOS03:09:03
215949CHARLENE CANDIDOF45F459912OS GRAVATAS03:09:03
216570CAROLINA DA SILVAF22F202994AVULSO03:09:08
217740JESSICA DE OLIVEIRA CARNIERIF28F202995LOS BRABOS03:09:08
2181005RAQUEL POROCHNIAKF26F202996STUDIO ONE LIFE03:09:09
219756LILIANE BUHRERF34F3044101NOS QUE VOA03:09:31
220755FRANCIELE BUENOF30F3044102METALFLEX03:10:17
221969SILVANA PARMIGIANI DAMIÃOF54F459913OS GRAVATAS03:10:31
2221408THAIS ARTIGAS DOS SANTOSF23F202997CROSSFIT TAMBORE03:10:47
223594MIKAELA ESMANHOTTOF18F141911AVULSO03:11:56
224595MONIQUE ESMANHOTTOF15F141912AVULSO03:11:57
2251665RAFAELA SORIANIF28F202998FORCA TAREFA03:11:57
2261815RENATA GOBETTI FERRIF35F3044103SOU BRAVES NAO AMARELO03:12:15
227767KAROLINE ANGELA SILVAF34F3044104RONALD/SANDRINI03:12:20
2281679GIOVANA MACHADO DE MAGALHAESF24F202999GUERREIROS FIT03:12:30
2291678GABRIELA CABRAL DOS SANTOS PINTOF20F2029100GUERREIROS FIT03:12:33
2301813DANIELA ENDOF34F3044105SOU BRAVES NAO AMARELO03:12:33
2311814LILIAN MARA DE SOUZAF34F3044106SOU BRAVES NAO AMARELO03:12:34
232798MARIA LUIZA COSTAF24F2029101TURMA DO BARRO03:12:44
2331756BRUNA FRANCOF23F2029102AVULSO03:12:46
234672LILIANE WICHINIESKIF15F141913FIVE ONE FITNESS03:13:02
235671LETICIA WICHINIESKIF19F141914FIVE ONE FITNESS03:13:04
2361106JOINE RIBEIRO MAIAF34F3044107AVULSO03:14:07
237997HELEN CRISTIAN BANKSF43F3044108STUDIO ONE LIFE03:14:38
2381577JACQUELINE MARQUES LARA DE ALMEIDAF26F2029103AVULSO03:15:02
2391098IZABELE MARINF35F3044109AVULSO03:15:05
2401067ANDRESSA CAROLINA BORGESF37F3044110AVULSO03:15:06
241750YANNICK BRASIL COELHOF28F2029104LOS BRABOS03:15:49
2421378TAMARA LEDOUX MOTA VIEIRAF21F2029105AVULSO03:16:00
2431358MARIA LUISA SALESF32F3044111AVULSO03:16:05
2441349LILIAN GRASIELLE SOBRAL AUBIMF33F3044112AVULSO03:16:09
245612VERIDIANA GOMES CANHAF31F3044113AVUSLO03:16:12
246559ADRIANE CAROLINE RUYF22F2029106AVULSO03:16:48
247904JESSICA BRESSANF25F2029107EQUIPE03:17:03
248905JULIANA BIZEF25F2029108EQUIPE03:17:05
2491575ISABELA DE MEDEIROS MARANHAOF24F2029109AVULSO03:17:20
2501249MARIANE LIBORIO CARDOSOF25F2029110RUN FOR LOVE03:17:27
2511001LETICIA BOZAF21F2029111STUDIO ONE LIFE03:18:38
252986ALLYNE BOING SUYTIF22F2029112STUDIO ONE LIFE03:19:24
253989CARINA BOBATO PELLANDAF30F3044114STUDIO ONE LIFE03:19:48
254994FLAVIA ROSSETO BIAVATTIF40F3044115STUDIO ONE LIFE03:20:54
2551100JACQUELINE MARIA DE LARAF27F2029113AVULSO03:20:56
2561121LUCIANE HEY GARANHANIF29F2029114AVULSO03:20:59
2571132PATRICIA SILVAF22F2029115AVULSO03:21:39
258743LAURA LUCIA REICHENF27F2029116LOS BRABOS03:21:40
2591126MARINA EMILIA SILVAF29F2029117AVULSO03:21:41
260747LUIZA CECERA VAZF26F2029118LOS BRABOS03:21:42
2611062ANA CLAUDIA CORREAF32F3044116AVULSO03:21:44
2621099JACQUELINE CRISTINA DA SILVAF33F3044117AVULSO03:21:50
263992CINTIA ELISA SCROCCAROF36F3044118STUDIO ONE LIFE03:22:31
264970SILVIA CRUZ FAGUNDIF35F3044119OS GRAVATAS03:22:35
265640BRUNA CAROLINA SILVEIRAF31F3044120CWBULLS03:22:43
2661648FERNANDA DORNELLES DA SILVA DA NOBREGA COSTAF31F3044121CT BODY TRAINING RJ03:22:50
2671463ANDRESSA GOBBIF29F2029119RUNBEER03:23:37
2681465LUISE CAROLINE DANIEL MIELKEF28F2029120RUNBEER03:23:38
269773ANDRESSA TICIANE CARDOSOF30F3044122TEAM SELVA03:23:45
2701477ADRIANE SALDANHA CABRAL FERREIRAF43F3044123TEIMOSOS03:23:55
2711288ALISSON CIRILO CAMPOSF32F3044124AVULSO03:23:59
2721614SAMANTA SAEKO MOMOI PRESOTTOF29F2029121AVULSO03:24:31
2731308DAYANA L. RODRIGUES MARCZAKF30F3044125AVULSO03:24:37
2741493MARIANA DENEKAF31F3044126TEIMOSOS03:24:37
275679THAYNA WIEGANDF16F141915FIVE ONE FITNESS03:24:38
276674MARIA ELOISA DE OLIVEIRAF16F141916FIVE ONE FITNESS03:24:46
277678SIMONE CAMARGOF30F3044127FIVE ONE FITNESS03:24:48
2781170VANIA DORNELAS SETEF49F459914BH FIGHT03:25:10
279966RAFAELLE PORTUGALF39F3044128OS GRAVATAS03:25:40
2801267DEBORA GUIMARAES TEIXEIRAF22F2029122UHUUU MUD RUNNERS03:25:44
2811127MIRIAN JOSIANE BRAUNF36F3044129AVULSO03:26:01
2821442LUCIANE MARQUES DE CASTRO PINHEIROF41F3044130NAO TENHO EQUIPE03:26:19
2831292ANDREA ELIZABETH CHOMAF41F3044131AVULSO03:27:37
2841245PAULA TATIANE NASCIMENTO VAZ DE ALMEIDAF32F3044132OS VALENTES03:28:46
285776PATRICIA LOISE FERNANDES MOTTAF36F3044133TEAM SELVA03:28:48
2861207TATIANE CRISTAULEF34F3044134GREGO JIU JITSU03:28:48
287585FRANCINE KRASSOTA MIRANDAF29F2029123AVULSO03:28:49
288774DANIELLE GROSS DE FREITASF31F3044135TEAM SELVA03:28:55
2891176BERNARDETE CRISTINA TAVARES DE SANTANAF24F2029124CAF TRAINING03:29:41
2901645NATHALIA BOSON CISZF26F2029125CROSSFIT ITU03:29:42
2911643MARIA CLAUDIA ROCCOF40F3044136CROSSFIT ITU03:29:43
2921641JULIANA APARECIDA DA SILVAF30F3044137CROSSFIT ITU03:29:45
2931627ANDREZA APARECIDA VIEIRA DA SILVAF29F2029126CORONA TEAM03:29:46
2941630THAISA DIAS BUENOF26F2029127CROSS FIT ITU03:29:51
2951263MARIANA VIEIRA LOWRYF20F2029128TRACO03:29:52
2961640EVELYN DELBOUXF25F2029129CROSSFIT ITU03:30:02
297627JOSIANE QUEIROZ NEVESF34F3044138COSENZA TEAM03:30:34
298858JULIETT RIBAS ASSISF23F2029130AVULSO03:31:11
2991855AMANDA BIRELLO MONARIF38F304413903:31:30
300935LARISSA MILHAN BIAZI XAVIERF35F3044140ONE FUNCIONAL RUNNING03:31:48
301936NATÁLIA BECKENKAMP RODRIGUESF27F2029131ONE FUNCIONAL RUNNING03:31:48
302931FABIANE RIBEIRO ROMANOF29F2029132ONE FUNCIONAL RUNNING03:31:51
303927CAMILA MILHANF33F3044141ONE FUNCIONAL RUNNING03:31:54
304939TACIANA SAYURI HATANAKAF35F3044142ONE FUNCIONAL RUNNING03:31:56
3051294ANGELA REFFATTIF27F2029133AVULSO03:32:33
3061302CHIRLEYNE RIBASF33F3044143AVULSO03:32:34
3071295ARITANA KLUCK DA SILVAF35F3044144AVULSO03:32:36
308607THAYANNE SCHRITKE BRIZOLAF24F2029134AVULSO03:32:40
3091303CINTIA TUANI NUNES DE AVILAF27F2029135AVULSO03:32:50
310953EDILAINE DOS SANTOS SILVAF44F3044145OS GRAVATAS03:33:20
3111461PAMELA ZIBETTIF23F2029136PROJETO PRATIQUE SAUDE03:33:25
3121323FABRICIA LUANA KLITZKEF28F2029137AVULSO03:33:27
3131301CAROLINA GIOVANELLA BARDINF32F3044146AVULSO03:33:31
3141459JULIE RAFAELA ALMEIDAF26F2029138PRATIQUE SAUDE PERSONAL03:33:37
315687CAROLINA CAMPANERF33F3044147FOX RUN03:35:20
316696LARISSA CORDEIRO PADILHAF18F141917FOX RUN03:35:26
317704PAULA CAILLOTF20F2029139FOX RUN03:35:27
3181702BRUNA NICOLI PETRYF24F2029140NAO TEM03:35:34
319705PRISCILA MENGARDOF31F3044148FOX RUN03:35:50
320692GISELLE L. SOUZAF34F3044149FOX RUN03:35:56
321688DANIELLE M. SANTOSF39F3044150FOX RUN03:35:57
3221075CAROLINA MONTANINO TARASTCHUKF25F2029141AVULSO03:36:04
323613PAULA CRISTINA LOBOF40F3044151BE HAPPY03:36:54
3241038EMELY CAROLINA ARRUDAF28F2029142360 JOULES03:37:01
3251037ANA PAULA SATOF34F3044152360 JOULES03:37:06
3261448CIBELE ALVES DA SILVA REIS,F25F2029143PONTO B PARKOUR03:39:01
3271487LORAINE BENDERF37F3044153TEIMOSOS03:41:24
3281083DEBORA KELLY ROSSETTOF24F2029144AVULSO03:41:47
3291541ANA CAROLINA B DA S PERESF22F2029145AVULSO03:43:53
330598PAOLA CASAPPURAF19F141918AVULSO03:47:50
331609VITORIA LOVATEL DE ANDRADEF18F141919AVULSO03:47:51
332596NATHALIA SILVA LUCCAF19F141920AVULSO03:47:53
3331238JAMILLE SANCHES SILVAF19F141921MECANIBRAVES03:49:06
334732DESIREE MAGELA DELOR RODRIGUEZF25F2029146LOS BRABOS03:49:13
3351398CRISLANE MARIA DE MELO SANTOSF21F2029147COLANOBAIANO03:55:16
3361457KATRICIE SEMKIO DE ALBUQUERQUEF35F3044154POPEYE E BRUTOS03:55:18
337749THAIS KORNDORFERF24F2029148LOS BRABOS03:59:13
338739INAIE DE MELO BENDLINF24F2029149LOS BRABOS03:59:15
339753LETYCIA AMANDO MONTEIROF25F2029150LOS BRAVOS03:59:22
340735GABRIELA MACEDO FRAIZF24F2029151LOS BRABOS03:59:30
3411367PRISCILA RIBAS GOMES PEREIRAF28F2029152AVULSO04:01:05
3421324FERNANDA HOFFMANN GOMESF25F2029153AVULSO04:01:08
343684ANDRESSA FERREIRA DOS SANTOSF23F2029154FOX RUN04:03:04
344943ANDREIA PIRES DA COSTAF30F3044155OS GRAVATAS04:03:50
3451329GALADRIEL SOPHYA BLASKOVSKIF23F2029155AVULSO04:06:26
3461439SORAYA SOUZA RENFROF26F2029156MAGIC04:06:30
347643JESSICA CANDIDOF26F2029157CWBULLS04:06:32
348638ANA CAROLINA MOISÉS DE SOUZAF31F3044156CWBULLS04:09:20
349647PERLA GRACIETY STEILF30F3044157CWBULLS04:09:24
350689DAYANE E. BORAF21F2029158FOX RUN04:09:36
3511456ANA CAROLINA MARMITTF18F141922POPEYE E BRUTOS04:09:54
3521188BRUNA BRANCOF22F2029159CROSSFIT CIANORTE04:11:35
353772AHUDREY CHRISTIANNE WOLFFF34F3044158TEAM SELVA04:13:15
354685CAMILA GONÇALVES FERREIRAF24F2029160FOX RUN04:20:38
355606SHESLA CRISTINA ZANONI JASLUKF29F2029161AVULSO04:25:38
356588GLEISY GROSSF33F3044159AVULSO04:25:50
357562ANA PAULA RIBEIROF38F3044160AVULSO04:25:52
358571CAROLINA TOLEDO SARMENTOF26F2029162AVULSO04:25:52
359604ROWENA EMILY KOHL HARRISONF29F2029163AVULSO04:26:17
360584ESTHER DIAS DA COSTAF31F3044161AVULSO04:27:03
3611713ARIADNE BARONIF23F2029164RUN FOR INSANITY14:59:00
3621672ALINE KAREN ALVES MATTOSOF23F2029165GUERREIROS FIT14:59:01

For Fun Masculino


ColNumNomeId.Fx.Et.Cl.Fx.Sx.C.EquipeTempo
11746GILSON DA VEIGA SILVA25M20291MACADEMIA FITNESS CLUB00:54:50
21747MARCO ANTONIO DE CASTILHO21M20292MACADEMIA FITNESS CLUB00:54:51
31835NIELSON ADEMIR FERREIRA30M30441MTRP01:11:10
41567GABRIEL FIGUEIREDO WOLFF24M20293MAVULSO01:14:49
51762DIORGES LISBOA MARTINS32M30442MAVULSO01:17:05
6653NIGEL ANTUNES PEDROSO26M20294MESPARTANOS01:18:07
71284VALTER JOSE DA SILVA40M30443MAVULSA01:23:04
81590LUIZ MARCOS CESCHIM DE SOUZA44M30444MAVULSO01:23:22
91707EVANDRO DA LUZ RAMOS27M20295MPROFIT STUDIO PERSONAL TRAINER01:29:01
101801WLLIAN AUGUSTO DA SILVA SAGIORI25M20296MFIVE ONE FITNESS01:30:30
11658ALESSANDRO CANTALICIO VIDAL22M20297MFIVE ONE FITNESS01:31:19
12768LEONARDO TOCZEK DAL NEGRO15M14191MRONALD/SANDRINI01:33:18
131619FRANCIS HARLEI DO NASCIMENTO30M30445MBIO X TRAINING01:34:14
141763EDUARDO HENRIQUE RIBEIRO DO VALLE25M20298MAVULSO01:34:15
151441FELIPE DO MONTE NASCIMENTO26M20299M01:36:35
16805BRUNO EDUARDO PINHEIRO24M202910MXTF01:36:48
17983RAPHAEL SARTORI BESSA30M30446MSEM BARREIRAS01:36:56
18982LUIZ CANDIDO SIMAS MARQUES37M30447MSEM BARREIRAS01:37:14
191734PEDRO JORDANO47M45991MTEAM TITIUS01:38:11
20726LUIS FELIPE HAKIM LEAL30M30448MIV TEMPORA01:38:27
211549CRISTIANO OLIMPIO DE BRITO30M30449MAVULSO01:42:29
221618TIAGO OLIMPIO BRITO32M304410MAVULSO01:42:32
231708FLAMARION FERGUTZ DOS SANTOS BATISTA29M202911MQFA01:42:32
241831CLEISON CARLOS SALVADOR30M304411MTRP01:42:41
251597MARLON ORLANDO DOS SANTOS26M202912MAVULSO01:44:25
261605RAFAEL DIAS FERRANTE29M202913MAVULSO01:44:27
271546BRUNO LUIZ GONCALVEZ33M304412MAVULSO01:45:20
28715FREDERICO FONSECA30M304413MFREDSTONES01:46:25
291006RICARDO ZIEMER36M304414MSTUDIO ONE LIFE01:47:10
30620ANDERSON NEUMANN PELEGRINO28M202914MCOSENZA TEAM01:47:40
311681HENRIQUE SCHIAVINI MARAFON22M202915MGUERREIROS FIT01:47:41
32832ALEXANDRE PEREIRA PIRES43M304415MAVULSO01:48:06
331778MAURICIO PONTALTI34M304416MAVULSO01:48:44
341624THIAGO BELIN CAMARGO29M202916MCAMARGOO01:49:48
351622DANIEL BELIN CAMARGO30M304417MCAMARGOO01:49:52
361623FELIPE BELIN CAMARGO33M304418MCAMARGOO01:50:08
371830CARMIRO DAGNONI28M202917MTRP01:50:50
381836ORIVAL CARVALHO45M45992MTRP01:50:50
391060ALEXANDRE SCHUCHOWSKY40M304419MAVULSO01:52:07
401185DOUGLAS ROBERTO JULIATTO23M202918MCROSS FIGHT01:52:30
411186JACKSON RAMOS34M304420MCROSS FIGHT01:52:32
421094GIOVANI HALAMA28M202919MAVULSO01:53:17
431069ANTONIO JOAQUIM SANTIAGO NETO28M202920MAVULSO01:53:19
441286ALESSANDRO APARECIDO COSTA ROMANO27M202921MAVULSO01:53:58
451687THIAGO JULIANO VELHO26M202922MGUERREIROS FIT01:54:16
461706MURILO ALVES SABINO29M202923MPRIME SHAPE01:54:26
471536HERBERT COIMBRA SCHWARTZ33M304421MACADEMIA PRIME SHAPE01:54:30
481211JOAO VITOR KUSSEK20M202924MJOAO VITOR01:54:37
49758ALESSANDRO AFFORNALI41M304422MRONALD/SANDRINI01:55:02
501171VITOR HUGO PINHEIRO35M304423MBODYTECH01:55:17
511115LOURIVAL JUNIOR BARBOSA DE MELO22M202925MAVULSO01:58:03
521637MARCELO ARAUJO DE FREITAS49M45993MCROSSFIT BARIGUI01:58:16
531604RAFAEL CORREA CARSONI26M202926MAVULSO01:58:19
541566FERNANDO CESAR LOPES LAGOEIRO43M304424MAVULSO01:58:21
551328GABRIEL BAO21M202927MAVULSO01:58:41
561776MARIO SERGIO VIEIRA41M304425MAVULSO01:58:58
57790GUILHERME COUTINHO DOS SANTOS26M202928MTURMA DO BARRO01:59:29
581753ANDERSON MARTINS DA SILVA29M202929MAVULSO01:59:42
591827ANDERSON DANIEL SOLA41M304426MTO NA LAMA01:59:42
601794LEONARDO ANTONIO AZEVEDO GUEDES25M202930MEQUIPE LIFEON02:00:40
611795WILLIAM GOMES FRAGA JUNIOR27M202931MEQUIPE LIFEON02:00:47
62554BRUNO AMARAL BEZERRA25M202932MACADEMIA TOTAL LIFE02:01:12
63656TIAGO RODRIGO DA SILVA29M202933MESPARTANOS02:01:49
64723TARIK PAVIANI DE SOUZA19M14192MFREDSTONES02:02:27
65985MARCO VAN DER MEER35M304427MSLOTH02:04:03
661434HESOTOS MAN TAN WU NG26M202934MMAFIA CHINESA02:04:21
671432EUGENIO GUANWEN NG23M202935MMAFIA CHINESA02:04:22
681244LUIS HENRIQUE AYALA SALMON23M202936MOS VALENTES02:04:31
69922REGIS ENDO31M304428MMUDCRUSHERS02:04:57
701574HERON MARTINELLI35M304429MAVULSO02:05:02
711535KELSON LUCIO ZLATANOF FUCHS39M304430MACADEMIA OLIMPICA KALUANA CROSSFIT02:05:37
721754ANDRE CESAR SINHOCA35M304431MAVULSO02:06:21
731751ADRYEN MOSER36M304432MAVULSO02:06:29
741539ALEX LIMA27M202937MAVULSO02:06:30
75576DAVI DE SOUZA53M45994MAVULSO02:07:20
761654ANDERSON STADLER36M304433MFIVE ONE FITNESS02:07:33
771112LEANDRO ALBERTO ALBUQUERQUE STABILE32M304434MAVULSO02:07:45
781166RUAHN FUSER24M202938MAVULSTO02:07:47
791825SIDNEI SEBASTIAO NUNES38M304435MSTUDIO DAL FARRA02:07:47
80785MAYCON CRISTOPHER TEIXEIRA37M304436MTRAINUP02:07:58
811372RODRIGO H MENDES21M202939MAVULSO02:08:14
821589LUIZ GUILHERME KUDLA SCHAPHAUSER24M202940MAVULSO02:08:15
831812BRUNO SIQUEIRA32M304437MPRIME SHAPE02:09:00
84761EDISON SANDRINI48M45995MRONALD/SANDRINI02:09:04
85769LUCA SANDRINI15M14193MRONALD/SANDRINI02:09:06
861774LUIZ HENRIQUE LOPES RASERA41M304438MAVULSO02:09:07
871731TIAGO DALAGRANA28M202941MSMN02:09:11
881730LUIZ HENRIQUE PEPPLOW26M202942MSMN02:09:20
891729CARLOS HENRIQUE CAVA27M202943MSMN02:09:32
901591LUIZ ROGERIO DA SILVA29M202944MAVULSO02:09:33
911625GUILHERME ANTONIO SOUZA E DIAS29M202945MCENTRO DE TREINAMENTO FLASHOVER02:09:33
921545BRUNO DALAGRANA26M202946MAVULSO02:09:38
931538ADRIANO CASAGRANDA27M202947MAVULSO02:09:48
941755ANDRE GUSTAVO LOUREIRO SCHELELA39M304439MAVULSO02:10:03
951561EMANUEL RAMOS MENDONCA BRUNO18M14194MAVULSO02:10:46
961587LUAN RODRIGO BAPTISTA27M202948MAVULSO02:11:05
97662DERICK WESLEY COSTA27M202949MFIVE ONE FITNESS02:11:15
981857VICTOR ROCHA LAMEIRO0M00131M02:11:15
991032WAGNER TEIXEIRA25M202950MWATNER02:11:33
1001187DYLAN GODINES21M202951MCROSSFIT BARIGUI02:11:53
1011247VICTOR MANICA LUCCA21M202952MPRIMATA02:12:01
1021374RUBENS ANTONIO GRUBER27M202953MAVULSO02:12:09
1031479ARTHUR MANZINI BORRIN20M202954MTEIMOSOS02:12:41
1041522GABRIEL ASTORGA GARBE32M304440MWOD02:12:57
105849GILBERTO CARDOSO49M45996MAVULSO02:12:58
106840CARLOS IVAN PEREIRA BORBA44M304441MAVULSO02:13:29
1071395WANDERLEY JUNGLES53M45997MCHOICE02:13:45
1081397JOAO PEDRO DUBIELLA DA CRUZ14M14195MCHOICEFUNCIONAL02:13:46
1091470ANDRE LAFFITES24M202955MSPARTANS02:13:48
1101837MOACYR CESAR C N SALDANHA41M304442MUNIVIDA02:14:27
111597OSNI PAULO LEONOR32M304443MAVULSO02:15:23
1121675BRUNO MENDES COSTA19M14196MGUERREIROS FIT02:15:49
1131677FERNANDO RUSSO32M304444MGUERREIROS FIT02:15:51
1141798FLAVIO JOSÉ CHORNOBAY30M304445MFIVE ONE FITNESS02:16:04
115695JOSE LUIS PYKOSZ HOLTHMAM32M304446MFOX RUN02:16:20
116882WILLIAM DEIVI DE OLIVEIRA33M304447MAVULSO02:17:31
1171039EVERSON XAVIER DA SILVA31M304448M360 JOULES02:17:34
1181430MARCOS OLIVEIRA27M202956MLOS PIRATAS DEL RON02:17:42
1191670ADRIANO COELHO MARQUES JUNIOR21M202957MGUERREIROS FIT02:18:09
120901VITOR SHIMADA ASSANUMA26M202958MCWBDOGES02:19:00
121899DANIEL FRANCISCO MARTINS DA SILVA27M202959MCWBDOGES02:19:05
1221749SELVINO FRANSOI JUNIOR38M304449MALL TERRAIN02:19:09
1231748ARISOEL DE ANDRADE36M304450MALL TERRAIN02:19:11
1241311DIOGO MATTAR SANTOS24M202960MAVULSO02:19:21
1251350LUCAS MARTINS DOIN19M14197MAVULSO02:19:29
126891CELIO AUGUSTO VALENGA45M45998MCROSSFIT PONTA GROSSA02:19:30
127897PEDRO HENRIQUE FRANCA18M14198MCROSSFIT PONTA GROSSA02:19:33
1281426ARMELINDO SARDAGNA NETO26M202961MLOS PIRATAS DEL RON02:19:44
1291287ALISON TRENTO33M304451MAVULSO02:19:45
130900MATHEUS GODOY26M202962MCWBDOGES02:19:48
1311710PATRICK RODRIGUES MAINARDES20M202963MRP02:20:00
1321346LEONARDO RIBEIRO SILVA27M202964MAVULSO02:20:10
133617TIAGO UBIRAJARA BORGES37M304452MCONEXAO FITNESS02:20:18
1341200RICARDO ANDRE DA COSTA GRACA46M45999MESGUALEPADOS02:20:21
1351163WILDI MARLON DOS SANTOS30M304453MAVULSO02:20:44
1361052CELSO LUIZ MAZZON38M304454MAVALANCHE02:20:52
1371054LEONARDO ANDREW LIBERATO21M202965MAVALANCHE02:21:34
1381334HUMBERTO KOTSIFAS33M304455MAVULSO02:21:35
139611YURI DANIELSKI KAMMRADT20M202966MAVULSO02:21:38
1401160VICTOR AURELIO ALVES34M304456MAVULSO02:21:42
141845FERNANDO TRINDADE DE MENEZES32M304457MAVULSO02:21:53
142880THIAGO BASTCHEN31M304458MAVULSO02:21:54
1431135RAFAEL LINHARES32M304459MAVULSO02:22:17
144637FABIO RODRIGO MILANI40M304460MCROSSFIT ESTIVADORES02:23:28
145831ALBERTO SANTANA UTRABO25M202967MAVULSO02:23:37
146876RENAN GUSTAVO DE OLIVEIRA26M202968MAVULSO02:23:37
1471081DANILO SIMIAO24M202969MAVULSO02:23:43
1481194PEDRO HENRIQUE FRANKE CORADASSI17M14199MCROSSFIT PONTA GROSSA02:24:17
1491167GUILHERME BRENNER LUCCHESI30M304461MBALEIAS02:24:46
1501184DIOGO UBIRAJARA BORGES33M304462MCONEXAO FITNESS02:25:01
1511363PAULO DE BARROS VIEIRA JUNIOR38M304463MAVULSO02:25:01
152907BRUNO FILIPPI RICCIARDI28M202970MHPP02:25:34
1531213WILLIAM MORETTI31M304464MKINDER OVO02:26:03
1541212FERNANDO MORETTI FERNANDES NABARRO27M202971MKINDER OVO02:26:13
1551705RAFAEL HACKBART31M304465MPONTO B PARKOUR02:27:04
1561452LUCAS IGNASZEWSKI15M141910MPONTO B PARKOUR02:27:46
1571553DENNIS FABRICIO DE ALMEIDA36M304466MAVULSO02:27:54
158844EDSON LUIZ BUENO DA SILVA JUNIOR28M202972MAVULSO02:27:55
1591843TIAGO JOÃO NESTOR32M304467MWOLFRUNNERS02:27:56
160843DEIVID SELLES PIRES29M202973MAVULSO02:27:57
1611842OSIRES MERCER GUIMARÃES NETO33M304468MWOLFRUNNERS02:27:57
162855JORGE BECKER LANZONI29M202974MAVULSO02:28:01
163873RAFAEL GANZ31M304469MAVULSO02:28:01
1641769JOAO ARTHUR DE LIMA MUSSI25M202975MAVULSO02:28:25
165823MARCOS ANTONIO DA SILVA45M459910MARAPONGAS02:28:49
166819HELIO MEIRA DE ALMEIDA49M459911MARAPONGAS02:28:52
167717ISRAEL PERDONSIN38M304470MFREDSTONES02:28:53
1681376SIDNEI DE PAULA FARIA39M304471MAVULSO02:29:03
169555DANIEL MATHEUS HEIDEN21M202976MACADEMIA TOTAL LIFE02:29:09
1701499CLEYTON EDUARDO MENDES DE TOLEDO41M304472MTREKKING MARINGA02:29:18
1711768JAIR ARAUJO JUNIOR40M304473MAVULSO02:29:31
1721772LEANDRO SANTOS DE SOUZA32M304474MAVULSO02:29:31
173780JONATHAN FRANCA DE CARVALHO32M304475MTEIXEIRA TEAM02:29:39
1741192HENRIQUE DERVICHE KASPRZAK17M141911MCROSSFIT PONTA GROSSA02:29:50
1751191CARLOS EDUARDO CORADSSI44M304476MCROSSFIT PONTA GROSSA02:29:55
176558WELINTON HENING DOS SANTOS20M202977MACADEMIA TOTAL LIFE02:29:59
1771137RENAN MOREIRA DO PRADO30M304477MAVULSO02:29:59
1781739LUIZ GUSTAVO LANZONI23M202978MTREM BALA DA COLINA02:30:03
1791735DAVI MARUISHI DOS SANTOS27M202979MTREM BALA DA COLINA02:30:39
1801737JEAN MOREIRA23M202980MTREM BALA DA COLINA02:30:46
1811315EDSON JESUS DA SILVA45M459912MAVULSO02:30:53
1821738JOAO BROIETTI48M459913MTREM BALA DA COLINA02:30:54
1831736FELIPE BAUDRAZ BROIETTI24M202981MTREM BALA DA COLINA02:31:01
1841615SIDNEI MANZI51M459914MAVULSO02:31:25
1851309DENILSON DO AMARANTE26M202982MAVULSO02:31:52
1861150SAULO VILLA LOBOS STRAPASSON20M202983MAVULSO02:32:05
1871316EDSON JESUS DA SILVA FILHO24M202984MAVULSO02:32:18
1881568GABRIEL PIETRUZA23M202985MAVULSO02:32:24
189923ROGER SEIJI ENDO35M304478MMUDCRUSHERS02:32:34
190654RAFAEL PADILHA DOS SANTOS31M304479MESPARTANOS02:32:54
1911044LUCAS CORADASSI ABDULACK FIDELIS20M202986M515 PRODUCTIONS02:33:14
192972THIAGO SANTOS31M304480MOS GRAVATAS02:33:37
193733FELIPE ARTIGAS HAY27M202987MLOS BRABOS02:33:52
1941583LEANDRO JOSE MOLINARI43M304481MAVULSO02:34:28
1951391FRANKLIN DA LUZ AGOSTINHO18M141912MBRUSQUE02:34:59
1961823PEDRO RICARDO STAHN17M141913MSTUDIO DAL FARRA02:35:07
1971392VILSON BRAZ PETERMANN JUNIOR18M141914MBRUSQUE02:35:17
198892CELIO RODOLFO DE ALMEIDA40M304482MCROSSFIT PONTA GROSSA02:35:41
199833ALEXSANDER GUSTAVO PORTES25M202988MAVULSO02:35:48
200854JOÃO PAULO AYRÃO30M304483MAVULSO02:35:48
2011429JOAO CARLOS HARGER JUNIOR29M202989MLOS PIRATAS DEL RON02:36:09
2021431RODRIGO ALEXANDRE DOHLER26M202990MLOS PIRATAS DEL RON02:36:17
2031788GABRIEL ESTEVES DE CASTRO30M304484MCIRCOCAN02:36:41
2041078DANIEL BERNARDO DE ALVARENGA31M304485MAVULSO02:36:58
2051600ODAILSON CAMPOS DOS SANTOS30M304486MAVULSO02:37:44
2061300CARLOS EDUARDO SORDI BORSSATO24M202991MAVULSO02:37:55
2071822MARCO AURELIO SCHEIDT42M304487MSTUDIO DAL FARRA02:37:59
2081821LEONILDO DAL FARRA JUNIOR31M304488MSTUDIO DAL FARRA02:38:14
209748RAFAEL HENRIQUE CONTE WECK31M304489MLOS BRABOS02:39:11
2101195WALLANCE ALVES DOS SANTOS18M141915MDISCIPULOS DE KLEBER BAMBAM02:39:16
2111761DIOGO VALES FERNANDES28M202992MAVULSO02:39:19
2121122LUCIANO BONFANTI48M459915MAVULSO02:39:28
2131139ROBERTO DE OLIVEIRA FILHO26M202993MAVULSO02:39:28
2141766GUILHERME AUGUSTO CARDOSO33M304490MAVULSO02:39:28
2151141RODOLFO LUIS DE OLIVEIRA24M202994MAVULSO02:39:30
2161131OSMAIR GELSON DE LIMA FILHO28M202995MAVULSO02:39:35
2171117LUCAS BONFANTI23M202996MAVULSO02:39:36
2181784THIAGO DA LUZ ANJOS26M202997MAVULSO02:40:15
2191109JOVANI MARTINS44M304491MAVULSO02:40:23
2201024RODRIGO JOSE KOKOTTE40M304492MTALIBA02:40:38
2211022LUCAS CASTANHO DE FREITAS21M202998MTALIBA02:40:45
2221164WILHELM MEIER28M202999MAVULSO02:41:20
2231400ERNANI TAVARES DA COSTA NETO25M2029100MCOMANDO PAROLA BRUTOS02:41:34
2241401ANDERSON SCOPEL35M304493MCOMANDO PAROLA BRUTUS02:41:40
2251699GUILHERME ARAUJO DOS SANTOS22M2029101MKATET02:41:40
2261314DJALMA LUIS VIEIRA JUNIOR38M304494MAVULSO02:41:54
2271354MARCELO DA SILVA35M304495MAVULSO02:41:55
2281107JONES FAGUNDES36M304496MAVULSO02:42:18
2291530FERNANDO AUGUSTO DE CARVALHO27M2029102M#FIREFEET02:42:31
230874RAFAEL PERRY SILVEIRA30M304497MAVULSO02:42:40
231870PAULO VINICIUS DE CARVALHO31M304498MAVULSO02:42:57
2321180ANDRE LUIZ MARQUES29M2029103MCOMEMOS LAMA MAS NAO POEIRA02:43:08
233830FABIO ARNOLD27M2029104MARNOLD02:43:15
2341655CHRISTIANO LOPES DE OLIVEIRA44M304499MFORCA TAREFA02:43:16
235871PEDRO HENRIQUE CARIAS DE OLIVEIRA18M141916MAVULSO02:43:17
2361085EDUARDO MEISTER METZGER32M3044100MAVULSO02:43:17
2371668WILIAN PEREIRA CUNHA34M3044101MFORCA TAREFA02:43:17
2381089FABRICIO SERBAKE40M3044102MAVULSO02:43:33
2391650MARCUS VINICIUS ALVES40M3044103MEQUIPE PRO CORPOS02:43:58
2401555EDERSON COSTA31M3044104MAVULSO02:43:59
2411199REGINALDO FELICE48M459916MESGUALEPADOS02:44:03
242860KAUE ANDREISON PISSAIA PAMPUCH19M141917MAVULSO02:44:11
243657GUSTAVO HENRIQUE ANTONELO21M2029105MESPARTANOS BRAVES02:44:32
2441016RAFAEL ANDREY FERNANDO WINCHE MARTINS29M2029106MSTUDIO SUPERACAO FITNESS02:44:41
245712BRUNO HENRIQUE BAPTISTA19M141918MFREDSTONES02:45:21
2461811RENAN AUGUSTO AMORIN28M2029107MKALUANA02:45:23
2471082DAYMON HENRIQUE DE OLIVEIRA SANDIN26M2029108MAVULSO02:45:40
248991CESAR AUGUSTO LEITE30M3044105MSTUDIO ONE LIFE02:46:41
2491011THIAGO PIQUERAS PERES29M2029109MSTUDIO ONE LIFE02:46:49
2501560ELTON GORTE KUHN34M3044106MAVULSO02:46:55
2511506LUIS ANTONIO PIMENTA LIMA53M459917MVALDIR CAMARGO DE MONTANHA02:47:04
252782ANDRE LEONARDO NASSER PEREIRA35M3044107MTOTAL LIFE02:47:08
253893FABIANO MEIRELLES PEREIRA33M3044108MCROSSFIT PONTA GROSSA02:47:20
2541253MARCOS TOMAZ47M459918MSTUDIO PERSONAL THAIS LIMA02:47:24
255888LUIS EDUARDO CANTOR VIEIRA40M3044109MCROSSFIT CIANORTE02:47:39
2561119LUCAS VIOMAR DE LIMA21M2029110MAVULSO02:47:39
257650ERICO RENATO ALMEIDA33M3044110MEQUIPECAO02:47:46
2581079DANIEL VALENTIM MACHADO23M2029111MAVULSO02:47:49
2591386RODRIGO PAVAN DE VALOES20M2029112MAVUSLO02:47:49
2601059ALEXANDRE FERREIRA KLEPPA19M141919MAVULSO02:47:55
2611175ALEXANDRE STADNIK PEIXOTO25M2029113MCAF TRAINING02:48:00
2621177CHRISTIANO FRANCISCO DOS SANTOS43M3044111MCAF TRAINING02:48:01
2631178DANIEL WAYHS SILVA22M2029114MCAF TRAINING02:48:01
2641113LEONARDO KUNTZ20M2029115MAVULSO02:48:16
2651130NICHOLAS LIMA TRELHA20M2029116MAVULSO02:48:21
2661104JOAO PAULO GONCALVES BASSO19M141920MAVULSO02:48:23
2671102JOAO HENRIQUE SANTOS DA SILVA26M2029117MAVULSO02:49:15
2681105JOAO PAULO MACHADO24M2029118MAVULSO02:49:26
2691210PEDRO RENATO GIROTO28M2029119MIGUANAS02:49:45
2701057ALEXANDRE CALDAS HYCZY18M141921MAVULSO02:49:59
271567BRUNO SCHNEIDER30M3044112MAVULSO02:50:03
2721371RODRIGO ARENALES ARANTES29M2029120MAVULSO02:50:23
2731256ANTONIO CARLOS DOS SANTOS36M3044113MSTUDIO THAIS LIMA02:50:41
2741203PAULO ALVES FONTES JUNIOR29M2029121MFR TEAM02:50:59
2751732SERGIO LUIZ LACERDA DE OLIVEIRA26M2029122MTEAM BIRL02:51:18
2761620GUILHERME SILVA MALHEIROS27M2029123MBIRL02:51:21
2771420RAFAEL TOALDO25M2029124MFULL TRAINING02:51:25
2781138RICARDO PEREIRA DOS SANTOS33M3044114MAVULSO02:51:37
2791020GUILHERME MAYER SEIXAS POMBEIRO26M2029125MTALIBA02:52:11
2801045GUILHERME ROGERIO ARRUDA27M2029126MAMADORES02:52:26
281682ALESSANDRO APARECIDO DE MORAIS39M3044115MFOX RUN02:52:28
2821047WILLIAN KOBACHUK DOS SANTOS27M2029127MAMADORES02:52:29
2831046MARLON MENDES DA SILVA22M2029128MAMADORES02:52:31
2841331HELCIO FIANDANESE53M459919MAVULSO02:52:33
2851342KAULY ALMEIDA30M3044116MAVULSO02:52:39
2861028MATHEUS TOSATO20M2029129MTARTARUGA02:53:10
2871027IGOR RADUAN DE ALMEIDA GALHARDO RADUAN23M2029130MTARTARUGA02:53:11
2881840HUGO FUTAGAWA28M2029131MVAI FILHAO02:53:13
289614FERNANDO NOSKOSKI26M2029132MCERVEJANTES02:53:16
2901525GLAUCIO ANTONIO CAIXETA BRANQUINHO35M3044117MWORKOUT CLUB02:53:28
2911540ALYSSON WILLIAM RODRIGUES RIBEIRO23M2029133MAVULSO02:53:29
2921158VALDINEI LOPES34M3044118MAVULSO02:53:33
2931110JULIANO DOS SANTOS32M3044119MAVULSO02:53:41
294925EVANDRO MASSUCATTO39M3044120MNOIS TRUPICA MAS NAO CAI02:53:49
2951524ALESSANDRO PEREIRA NICOLAU35M3044121MWORKOUT02:53:49
296771RONALD BERG49M459920MRONALD/SANDRINI02:53:53
2971603PAULO ZAVATTIERI RUIZ27M2029134MAVULSO02:54:08
298553ANTONIO CIDIVAL DA SILVEIRA43M3044122MACADEMIA TOTAL LIFE02:54:11
299557JEAN CARLO BECHEL DIRSCHNABEL31M3044123MACADEMIA TOTAL LIFE02:54:11
3001088FABIO TRENTIN20M2029135MAVULSO02:54:27
3011077CLEVERSON RODRIGUES DA SILVA37M3044124MAVULSO02:54:31
3021068ANDREY DOMINGOS DE LIMA36M3044125MAVULSO02:54:46
3031147RUAN DE AMARANTE SANTANA18M141922MAVULSO02:54:48
3041144ROGERIO MARCIO TYMUS40M3044126MAVULSO02:55:17
3051634JULIANO NEVES DA SILVA AZEVEDO30M3044127MCROSS FITLESTE02:55:52
3061633DIEGO MARTINS GARCIA31M3044128MCROSS FITLESTE02:56:00
3071694MARCUS AURELIO BOSCH HENDRIKX44M3044129MHYPER LAPA02:56:12
3081805BRUNO FERNANDO MACEDO22M2029136MHAGOVERS02:56:12
3091806LUCAS EDUARDO MANOZZO ALVES22M2029137MHANGOVERS02:56:13
3101808ROGERIO FERNANDO ALVES50M459921MHANGOVERS02:56:13
3111851RAFAEL YOKOWO0M00132M02:56:45
312677RAUL SANTOS MARCONDES17M141923MFIVE ONE FITNESS02:56:47
3131390JULIO CESAR ALVES DE LOIOLA20M2029138MBODYTECH CRYSTAL02:56:55
3141572GUILHERME PAZINI27M2029139MAVULSO02:56:55
3151165WILLIAN SCHMIDT23M2029140MAVULSO02:57:02
3161777MATHEUS EMILIO WOLFF25M2029141MAVULSO02:57:28
3171312DIOGO VAZ DE LIMA SILVA33M3044130MAVULSO02:58:21
318601RENATO CANTONI42M3044131MAVULSO02:58:36
3191804FLAVIO RICARDO DA SILVA MAIA35M3044132MFLAVIO MAIA TEAM02:58:50
3201325FERNANDO CARVALHO DA SILVA19M141924MAVULSO02:58:52
321883WILLIAN ZOZ23M2029142MAVULSO02:58:57
3221387BRUNO LUIZ DE ASSIS BASTOS29M2029143MBASTOS02:58:59
323586GERSON HARDT43M3044133MAVULSO02:59:01
3241279HEITOR MURILO GOMES28M2029144MACADEMIA SENDA02:59:11
3251404SANDRO AMORIM35M3044134MCOMANDO PAROLA BRUTUS02:59:26
3261632ALAN RODRIGO JORDANI38M3044135MCROSS FITLESTE02:59:27
327988BRUNO FRANCISCO DE FARIAS36M3044136MSTUDIO ONE LIFE02:59:35
3281332HENRIQUE MATIAS DE FREITAS OLIVEIRA40M3044137MAVULSO02:59:37
3291720HÉLIO ROBERTO HUZAR33M3044138MRUN FOR INSANITY02:59:49
330917PAZINE COELHO23M2029145MMAGAFUNDOS02:59:51
3311721JOÃO PAULO SOARES GODOI24M2029146MRUN FOR INSANITY02:59:51
3321716CLEVERSON ROCHA31M3044139MRUN FOR INSANITY02:59:52
3331724MARCOS ALEXANDRE PELEGRINO28M2029147MRUN FOR INSANITY02:59:56
3341656CLEBER JOSE DE CARVALHO DO AMARANTE38M3044140MFORCA TAREFA03:00:03
335850GUILHERME LOCATELLI29M2029148MAVULSO03:00:20
3361008SANDRO COLLODEL40M3044141MSTUDIO ONE LIFE03:00:23
3371781PEDRO HENRIQUE KOHL COSTA19M141925MAVULSO03:00:28
338632RAFAEL MULLER33M3044142MCOSENZA TEAM03:00:37
339915ALEXANDRE JORDAO MACHADO33M3044143MMAGAFUNDOS03:00:37
340916LUIZANDRO DUARTE34M3044144MMAGAFUNDOS03:00:41
3411593MARCELO DE ALMEIDA BUCANEVE46M459922MAVULSO03:00:59
3421551DANIEL DAHMER33M3044145MAVULSO03:01:04
3431606RAFAEL FERNANDES DE MORAES QUADROS35M3044146MAVULSO03:01:06
3441351LUIS EDUARDO ALVES DE LOIOLA22M2029149MAVULSO03:01:12
345633ROGERIO APARECIDO MOREIRA JUNIOR17M141926MCOSENZA TEAM03:01:13
3461617THIAGO JOSE NAZAR SILVA31M3044147MAVULSO03:01:16
347639ANDRÉ AUGUSTO DOS SANTOS29M2029150MCWBULLS03:01:29
348846FRANCIMAR CARLOS MOREIRA30M3044148MAVULSO03:01:39
3491667ROBSON VINICIUS ZANOLLA25M2029151MFORCA TAREFA03:01:39
350906FELIPE RODRIGO BINI34M3044149MEQUIPE TRUPICA MAS NAO CAI03:01:40
351572CHRISTIAN DALL AGNOL ACEVEDO33M3044150MAVULSO03:02:06
3521584LEANDRO LUIS PICCOLO36M3044151MAVULSO03:02:06
353587GIOVANNI OLIVEIRA DA SILVA32M3044152MAVULSO03:02:11
3541445JOSE EDUARDO MORAIS DE SOUSA30M3044153MPONTAL BRAVES03:02:16
3551029THIAGO TREVIZAN GROKSKREUTZ28M2029152MTARTARUGA03:02:42
356622DANIEL JOSE MOREIRA29M2029153MCOSENZA TEAM03:03:15
357624FABRICIO COSENZA27M2029154MCOSENZA TEAM03:03:17
3581048BRUNO FRANCIS SILVEIRA GONCALVES28M2029155MANTUERPIANS03:03:34
3591274LUCIANO TROIABNI35M3044154MABELINHA03:03:35
3601318EDUARDO MALUF PENNA33M3044155MAVULSO03:03:35
3611576ISAC ALVES DA SILVA39M3044156MAVULSO03:03:36
3621305DALKER WALTER35M3044157MAVULSO03:03:38
3631425OTAVIO AUGUSTO DE BRITO SILVA26M2029156MLIFE FIT STUDIO03:03:51
3641526VALDOMIRO PATRICIO DE LUCENA30M3044158MWORKOUT CLUB03:03:52
365800SAULO GUIMARÃES MAHFOUD30M3044159MTURMA DO BARRO03:04:07
366788CEZAR AUGUSTO LAVAGNINI26M2029157MTURMA DO BARRO03:04:27
367797MARCEL LAPORTA35M3044160MTURMA DO BARRO03:04:29
3681562ENRICO GOTTI RIBAS36M3044161MAVULSO03:04:29
369792KASSIANO ANQUIZES JABONSKI25M2029158MTURMA DO BARRO03:04:31
3701780NICHOLAS B G RIBAS14M141927MAVULSO03:04:31
371791JORGE BONFIM26M2029159MTURMA DO BARRO03:04:32
372702MAX AMAURY CALDAS23M2029160MFOX RUN03:05:25
3731343KHAUAN GRITZ DOS SANTOS19M141928MAVULSO03:05:46
3741684MARLON LOPES FERNANDES20M2029161MGUERREIROS FIT03:05:46
3751686RENAN BONAFINI CORDEIRO23M2029162MGUERREIROS FIT03:05:51
3761688VENICIO EDUARDO41M3044162MGUERREIROS FIT03:05:56
377721MATHEUS VIEIRA23M2029163MFREDSTONES03:06:14
378786ADEMIR RICARDO ROSAS DIAS26M2029164MTURMA DO BARRO03:06:48
3791453MARCOS SAITO BABÁ43M3044163MPONTO B PARKOUR03:07:09
3801092GABRIEL AUGUSTO FERRARINI15M141929MAVULSO03:07:20
381978MURILO LEMES GROKOSKI29M2029165MPONTO B PARKOUR03:07:45
3821161VINICIUS AUGUSTO FERRARINI23M2029166MAVULSO03:07:57
383977GABRIEL WEISS18M141930MPONTO B PARKOUR03:08:17
384660CHARLES WILLIAN DE OLIVEIRA39M3044164MFIVE ONE FITNESS03:08:26
385981FABIO BISPO DE OLIVEIRA46M459923MRANZINZAS GROUP03:08:33
3861108JOSE HENRIQUE RIBEIRO ALVES DE MACEDO54M459924MAVULSO03:08:53
3871142RODRIGO FARION34M3044165MAVULSO03:08:56
3881058ALEXANDRE FARION30M3044166MAVULSO03:08:58
389948CELSO GERALDO MEDINA47M459925MOS GRAVATAS03:09:00
390634STALEN JOHANN DECKER23M2029167MCOSENZA TEAM03:09:06
391579DIOGO PINHEIRO35M3044167MAVULSO03:09:08
392993DIEGO BUBULA NOGUEIRA30M3044168MSTUDIO ONE LIFE03:09:08
393924CHRISTIAN MASSUCATTO24M2029168MNOIS TRUPICA MAS NAO CAI03:09:30
3941389SILAS KISTER FERREIRA GONCALVES25M2029169MBODYTECH03:09:49
395754AUREO FERREIRA FHYNBEEM36M3044169MMETALFLEX03:10:12
3961437WEIQUAN SU22M2029170MMAFIA CHINESA03:10:14
3971435MARCOS GIL WU18M141931MMAFIA CHINESA03:10:26
3981433GUILHERME S SORIA22M2029171MMAFIA CHINESA03:10:28
3991472GUSTAVO FAUSTO MARTINS24M2029172MTAMANHO M03:10:45
4001473GUSTAVO LUIZ SILVA23M2029173MTAMANHO M03:10:45
401921LAURENS ENDO29M2029174MMUDCRUSHERS03:10:53
402693JAIR NASCIMENTO DA SILVA46M459926MFOX RUN03:11:12
403698LUCAS CHAMPOSKI BORBA19M141932MFOX RUN03:11:13
4041002NILSON IDELVINO BIAVATTI54M459927MSTUDIO ONE LIFE03:11:14
4051277CARLOS BODZIAK NETO31M3044170MACADEMIA SENDA03:11:17
4061281JORGE JEFREMOVAS58M459928MACADEMIA SENDA03:11:17
4071714ATAIDE SOARES VIEIRA JR27M2029175MRUN FOR INSANITY03:11:37
4081664LUCAS TADEU BERGAMIM ARROSTI29M2029176MFORCA TAREFA03:11:53
409625GILBERTO BARBOZA DE OLIVEIRA18M141933MCOSENZA TEAM03:11:55
4101659FABRICIO RODRIGUES LODDI29M2029177MFORCA TAREFA03:12:11
4111722JOSÉ CARLOS MARTINS DA SILVA FILHO27M2029178MRUN FOR INSANITY03:12:14
4121662IHOR YOHAN OLIJNYK34M3044171MFORCA TAREFA03:12:15
413651ANDERSON JOSE PEREIRA30M3044172MESPARTANOS03:12:16
414652MANOEL DOMINGOS DA ROCHA45M459929MESPARTANOS03:12:17
415763GEO MARQUES NETO42M3044173MRONALD/SANDRINI03:12:21
416946CARLOS EDUARDO SILVA MOREIRA34M3044174M03:12:21
417655RAFAEL VEDAM WEINSCHUTZ30M3044175MESPARTANOS03:12:22
4181723LUIZ FERNANDO BARONI58M459930MRUN FOR INSANITY03:12:29
4191718FABIO LUIZ NAVARRO BERGOSSI23M2029179MRUN FOR INSANITY03:12:30
4201719FILIPE GUEDES SANCHES23M2029180MRUN FOR INSANITY03:12:31
4211680GUILHERME CORDEIRO DOS SANTOS23M2029181MGUERREIROS FIT03:12:33
4221767GUSTAVO GRZYBOWSKI23M2029182MAVULSO03:12:47
4231791ANDRE HENRIQUE FELSKY SILVA24M2029183MCOXA RUNNERS03:12:56
4241502JOSE LUIS SORIANI FILHO33M3044176MTREKKING MARINGA03:13:23
4251276ADRIANO DO LAGO42M3044177MACADEMIA SENDA03:13:24
4261280JEFFERSON RAZERA37M3044178MACADEMIA SENDA03:13:28
4271501IGOR FERNANDO DE MELO GARBO30M3044179MTREKKING MARINGA03:13:51
4281241HERBERT LOPES FERREIRA33M3044180MNOIS TROPICA MAIS NAO CAI03:13:58
4291123LUIS HENRIQUE CASTANHEIRA BASSANI23M2029184MAVULSO03:14:08
4301498ANDERSON ROBERTO KAUCZ LIU28M2029185MTREKKING MARINGA03:14:09
4311505PEDRO JUNQUEIRA VALIAS MEIRA32M3044181MTREKKING MARINGA03:14:10
432820JEFERSON CORTEZ39M3044182MARAPONGAS03:14:23
433814ADILSON GRECCO44M3044183MARAPONGAS03:14:28
4341012VICTOR ALFREDO BANKS LARSEN15M141934MSTUDIO ONE LIFE03:14:38
4351086ELI CARLOS AZIA CORREA36M3044184MAVULSO03:14:44
4361609RICARDO NAZAR RODRIGUES23M2029186MAVULSO03:15:02
4371202LEANDRO DE CASTRO CUNHA34M3044185MFLUIR STUDIO03:15:06
438793LEANDRO KRAUSE31M3044186MTURMA DO BARRO03:15:13
439599RAFAEL FELIPE MARTINS34M3044187MAVULSO03:15:52
440610WELLINGTON FELIX BARBOSA33M3044188MAVULSO03:15:53
441708RONIE MIRANDA PIRES45M459931MFOX RUN03:16:05
4421383WAGNER RIBEIRO TREUKO31M3044189MAVULSO03:16:08
443564ANDRE ROBERTO CUNHA CHINASSO35M3044190MAVULSO03:16:12
4441444JOAO PAULO PEREIRA23M2029187MPELADEIROS BRAVES03:16:18
445575DANIEL DOERNER34M3044191MAVULSO03:16:21
446707RENAN BORGES24M2029188MFOX RUN03:16:26
447560ALESSANDRO DOMINGUES DA SILVA28M2029189MAVULSO03:16:48
448566BRUNO GUILHERME BORNANCIN22M2029190MAVULSO03:16:54
449706RAFAEL FERNANDO DE ASSIS34M3044192MFOX RUN03:16:59
450903JEAN EDUARDO FERNANDES JESUS28M2029191MEQUIPE03:17:14
4511248CARLOS AUGUSTO HORT CANDIDO24M2029192MRUN FOR LOVE03:17:27
452818EMERSON CORTEZ43M3044193MARAPONGAS03:18:14
453920GUSTAVO OSNY VALTER19M141935MMUDCRUSHERS03:18:35
454999JORACIR BOZA50M459932MSTUDIO ONE LIFE03:18:36
4551009SAULO PELLANDA33M3044194MSTUDIO ONE LIFE03:18:51
4561003PATRICK CANTAREIRO SUYTI22M2029193MSTUDIO ONE LIFE03:19:22
457635THIAGO SANDESKI33M3044195MCOSENZA TEAM03:20:32
458626GUILHERME EDUARDO CHUPIL28M2029194MCOSENZA TEAM03:20:35
459629LUCAS BARKE BRUZON34M3044196MCOSENZA TEAM03:20:41
4601066ANDERSON YUKIO RODRIGUES28M2029195MAVULSO03:21:08
4611278FLAVIO LEONEL DOS SANTOS43M3044197MACADEMIA SENDA03:21:08
4621072BRUNO GARANHANI30M3044198MAVULSO03:21:13
4631797DHONATAN PATRICK WAGNER33M3044199MFIVE ONE FITNESS03:21:18
464680THIAGO MAYDANA34M3044200MFIVE ONE FITNESS03:21:21
465958JOSUÉ OLIVEIRA GODOY47M459933MOS GRAVATAS03:21:29
466744LEONARDO RODRIGO MEYER DE OLIVEIRA21M2029196MLOS BRABOS03:21:41
4671103JOAO LUIZ RODRIGUES DOS SANTOS43M3044201MAVULSO03:21:51
4681649GLEISSON DA NOBREGA COSTA35M3044202MCT BODY TRAINING RJ03:22:51
4691143RODRIGO MASSAO YOSHIDA27M2029197MAVULSO03:23:20
4701153TAINAN GABARDO MIRANDA DOS SANTOS26M2029198MAVULSO03:23:22
471971STEVENS FABRI SIMÕES34M3044203MOS GRAVATAS03:23:32
4721464FABIO HENRIQUE MIELKE35M3044204MRUNBEER03:23:38
4731306DANIEL QUINTO ROSSI29M2029199MAVULSO03:23:59
474563ANDRE HENRIQUE MILDEMBERG27M2029200MAVULSO03:24:27
475582EDUARDO RUI24M2029201MAVULSO03:24:28
4761709JOAO ANTONIO ALVES DE CAMPOS27M2029202MREDBOX03:24:28
4771588LUCAS OSSAMU MOMOI PRESOTTO27M2029203MAVULSO03:24:31
478887JULIO FADONI26M2029204MCROSSFIT CIANORTE03:24:34
479661DARCY WIEGAND49M459934MFIVE ONE FITNESS03:24:39
480664FABIANO MATIAS30M3044205MFIVE ONE FITNESS03:24:43
481667JOAREZ BAIDA37M3044206MFIVE ONE FITNESS03:24:43
482886GEORGE MORENO DE PAULA NOGUEIRA25M2029205MCROSSFIT CIANORTE03:24:43
483668JOSÉ EDUARDO DE OLIVEIRA14M141936MFIVE ONE FITNESS03:24:46
484665GUILHERME JOSÉ COSTA DA SILVA20M2029206MFIVE ONE FITNESS03:24:47
485675MATHEUS MABERG RIBEIRO17M141937MFIVE ONE FITNESS03:24:50
486673LUIS FERNANDO MIRANDA LEITE17M141938MFIVE ONE FITNESS03:24:53
487669LEANDRO KLUBER33M3044207MFIVE ONE FITNESS03:24:56
4881449GUERLAIN JEAN-CLAUDE SCOTT HOLDERBACH19M141939MPONTO B PARKOUR03:24:57
4891149SAULO GUILHERME MAGALHAES SILVA28M2029207MAVULSO03:25:05
4901169MARCIONILIO EUSTAQUIO DE SOUZA46M459935MBH FIGHT03:25:06
491889RAFAEL ISSAO GARCIA UEDA18M141940MCROSSFIT CIANORTE03:25:07
4921796CARLOS EDUARDO FRANCO FERREIRA33M3044208MFIVE ONE FITNESS03:25:09
493973VITOR AUGUSTO BERGHAUSER DA SILVA19M141941MOS GRAVATAS03:25:13
4941074CARLOS HENRIQUE BARBOSA DE OLIVEIRA36M3044209MAVULSO03:25:32
495967ROBERTO ATANASIO38M3044210MOS GRAVATAS03:25:34
496676RAONI ALVES DOS SANTOS32M3044211MFIVE ONE FITNESS03:25:37
4971140RODOLFO AUGUSTO HORACIO MACARIO43M3044212MAVULSO03:26:04
4981330GEOVANI DE SOUZA CORDEIRO40M3044213MAVULSO03:26:16
499729CAIO LOPES DA SILVA22M2029208MLOS BRABOS03:27:11
500996GUSTAVO TORQUATO COSTA29M2029209MSTUDIO ONE LIFE03:27:13
501975WILLIAN DIOGO UKASINSKI23M2029210MOS GRAVATAS03:27:37
502636WILLIAM SANTANA38M3044214MCOSENZA TEAM03:27:38
503951DANIEL PAULO RONCOSKI TRINKAUS31M3044215MOS GRAVATAS03:27:38
5041013WILLIAN SOARES MOREIRA38M3044216MSTUDIO ONE LIFE03:27:42
5051413HINKO KEHL24M2029211MFBITS03:27:57
5061206MAURO CRISTAULE49M459936MGREGO JIU JITSU03:28:04
5071411ANTONIO OLIVEIRA DE MELO29M2029212MFBITS03:28:06
5081370ROBERSON HENRIQUE POZZOBON32M3044217MAVULSO03:28:09
509990CELSO ALEXANDRE CAVICHIOLO36M3044218MSTUDIO ONE LIFE03:28:10
510828ROGERIO LAGUNA40M3044219MARAPONGAS03:28:22
5111262BRENO HENRIQUE MACHADO SOARES22M2029213MTRACO03:28:34
5121364PAULO GALVAO38M3044220MAVULSO03:28:35
5131242FELIPE VAZ DE ALMEIDA32M3044221MOS VALENTES03:28:42
514644JONATHAN FABIAN FARIAS SOBRINHO29M2029214MCWBULLS03:28:48
5151417PIETRO LUIS FELLIPE NEULS ALVES PRUDENTE26M2029215MFBITS03:28:48
5161414JEAN CARLOS DE OLIVEIRA DE ARAUJO22M2029216MFBITS03:28:50
517777THIAGO MARTINI RIBEIRO PINTO27M2029217MTEAM SELVA03:28:51
5181205GLEVISON LIBERATO CRISTAULE42M3044222MGREGO JIU JITSU03:28:52
519778ANDERSON MOLERO34M3044223MTEAMSELVA03:28:53
5201208MAURICIO CRISTAULE49M459937MGREGOS03:28:53
5211628JOAO LUIZ MAZZEI40M3044224MCORONA TEAM03:29:37
5221265VITOR MACHADO SPECHT21M2029218MTRACO03:29:56
5231646PAULO HENRIQUE DA SILVA29M2029219MCROSSFIT ITU03:30:23
5241642LUIZ HENRIQUE DA SILVEIRA MORAES32M3044225MCROSSFIT ITU03:30:25
525701MARCIO L. SILVA35M3044226MFOX RUN03:30:39
5261415MARLON VINICIUS KORZUNE32M3044227MFBITS03:30:47
5271478ALESSANDRO ANSELMO DOS SANTOS41M3044228MTEIMOSOS03:31:17
528937RAFAEL NATALE FIORELLI30M3044229MONE FUNCIONAL RUNNING03:31:49
529934JULIO RYUJIN SHIMONISHI37M3044230MONE FUNCIONAL RUNNING03:31:51
530932FERNANDO PIMENTA27M2029220MONE FUNCIONAL RUNNING03:31:58
531941VITOR HUGO DE OLIVEIRA GARCIA31M3044231MONE FUNCIONAL RUNNING03:31:58
532938RODOLFO BIAZI XAVIER SILVA36M3044232MONE FUNCIONAL RUNNING03:32:02
533933GUSTAVO STORTO BIAZI30M3044233MONE FUNCIONAL RUNNING03:32:03
534928CARLOS EDUARDO TOMAZELLI FRANCO35M3044234MONE FUNCIONAL RUNNING03:32:04
535929DANIEL DAVANÇO BORELLA37M3044235MONE FUNCIONAL RUNNING03:32:05
536659CARLOS HENRIQUE CESAR DOS SANTOS36M3044236MFIVE ONE FITNESS03:32:20
5371697JOHNNY LIMA27M2029221MJR03:32:34
5381698RAFAEL LEANDRO DA ROCHA28M2029222MJR03:32:38
539589GUILHERME MATTOS GUEDES CORREIA22M2029223MAVULSO03:32:40
540600RENAN CARVALHO MATTOS GUEDES23M2029224MAVULSO03:32:40
541592LUCAS STEFFENHAGEN23M2029225MAVULSO03:32:41
542947CARLOS ROBERTO FUNKE LENZ JUNIOR37M3044237MOS GRAVATAS03:33:26
5431460FABRICIO JUVENCIO35M3044238MPROJETO PRATIQUE SAUDE03:33:39
5441322FABIANO BARDIN35M3044239MAVULSO03:33:41
5451458FERNANDO CANOVA26M2029226MPRATIQUE SAUDE PERSONAL03:33:55
5461225PEDRO PEREIRA DOS SANTOS35M3044240MKUTELOS UNIDOS03:34:07
5471222JULIO CESAR MUCHIUTTI23M2029227MKUTELOS UNIDOS03:34:08
548686CARLOS ALBERTO P. KARGER22M2029228MFOX RUN03:35:24
549641DANILO DANTAS SONCINI28M2029229MCWBULLS03:35:46
550683ANDREA L. PEREIRA37M3044241MFOX RUN03:35:55
551956GUSTAVO CASTRO19M141942MOS GRAVATAS03:35:56
552942ANDRÉ SANTANA25M2029230MOS GRAVATAS03:36:07
553775ERLON ROBERVAL KONOPACKI41M3044242MTEAM SELVA03:36:08
5541440SIDNEY ALVES PETRY48M459938MNAO TEM03:36:19
5551703LEONARDO DE OLIVEIRA PETRY18M141943MNAO TEM03:36:20
556623DIEGO RODRIGO QUANZ DARIVA33M3044243MCOSENZA TEAM03:36:53
5571040GABRIEL SANTOS ABDEL JALIL29M2029231M360 JOULES03:36:59
5581042VITOR MATIAS GRAH25M2029232M360 JOULES03:37:04
5591041ICARO MARCEL LOPES DE SOUZA28M2029233M360 JOULES03:37:12
5601339JONATAS DUTRA SALLABERRY34M3044244MAVULSO03:37:30
5611297ATHAYDE RIBEIRO COSTA36M3044245MAVULSO03:37:34
5621304CLAUDIONEI SANTA LUCIA47M459939MAVULSO03:37:37
563957JORGE WILSON BRANDÃO MICHALOWSKI29M2029234MOS GRAVATAS03:37:45
5641317EDUARDO ALMEIDA ALVES25M2029235MAVULSO03:37:54
5651215BRUNO MARRACH MEROTTI29M2029236MKUTELOS UNIDOS03:38:29
5661455VINICIUS ZARAMELLA,26M2029237MPONTO B PARKOUR03:39:01
5671230WILIAN FERNANDO DIAS DE SOUZA31M3044246MMALANDRAO03:39:20
5681282MARCUS FERNANDES ARAUJO FILHO30M3044247MACADEMIA SENDA03:40:01
5691283VOLNEY DE OLIVEIRA MOTA42M3044248MACADEMIA SENDA03:40:06
5701196GABRIEL DA SILVA PADILHA20M2029238MDISCIPULOS DO KLEBER BAMBAM03:40:34
571825RICARDO TIMO43M3044249MARAPONGAS03:41:33
5721486LEONARDO TELES GASPAROTTO31M3044250MTEIMOSOS03:41:50
5731152STHELLOWN MUNIZ DA SILVA30M3044251MAVULSO03:41:52
5741416MAYKOL RYPKA27M2029239MFBITS03:41:54
575697LUAN GABRIEL SILVA DOS SANTOS19M141944MFOX RUN03:42:19
5761240JEFFERSON DOS SANTOS CAVALCANTE PERES25M2029240MNAO TENHO03:43:33
5771073BRUNO JOSE PEREIRA24M2029241MAVULSO03:43:56
5781036FELIPE WOICIEKOSKI23M2029242MWOICIEKOSKI03:44:14
5791223LUCAS RODRIGUES DA SILVA21M2029243MKUTELOS UNIDOS03:44:20
5801228WILLIAM TRINETTO COSTA24M2029244MKUTELOS UNIDOS03:45:28
5811490LUIZ FERNANDO FERREIRA28M2029245MTEIMOSOS03:45:58
582861KLEBER MARCELO BATISTA33M3044252MAVULSO03:46:08
5831070APARECIDO JOSE ALVES FILHO29M2029246MAVULSO03:47:46
5841198MAURICIO AUGUSTO RODACKI46M459940MESGUALEPADOS03:47:46
5851229CESAR AUGUSTO VILLANOVA31M3044253MMALANDRAO03:47:46
5861226RAFAEL SACONATTO25M2029247MKUTELOS UNIDOS03:47:58
587694JONATAN DE SOUSA ZANLUCA27M2029248MFOX RUN03:48:29
5881494RODRIGO GORSKI CORREIA DE FREITAS29M2029249MTEIMOSOS03:49:02
5891483GUSTAVO WIZIACK SILVA29M2029250MTEIMOSOS03:49:04
5901239MICHELE SANCHES ALFREDO18M141945MMECANIBRAVES03:49:09
591738GUILHERME RANGEL ERCOLANI25M2029251MLOS BRABOS03:49:11
592737GUILHERME RAMOS JUSTUS25M2029252MLOS BRABOS03:49:12
5931219FABIO BARONI DE OSTI27M2029253MKUTELOS UNIDOS03:49:25
5941480CAINÃ MAURÍCIO RIBAS DA SILVA25M2029254MTEIMOSOS03:51:45
5951488LUÍS FERNANDO SOARES SILVA32M3044254MTEIMOSOS03:51:45
5961495RODRIGO PEREIRA DO ESPIRITO SANTO29M2029255MTEIMOSOS03:51:46
597593MARCELO ROCHA34M3044255MAVULSO03:51:52
5981492LUIZ HENRIQUE SPEZIA FILHO30M3044256MTEIMOSOS03:53:14
5991485JONATHAN CAMARGO44M3044257MTEIMOSOS03:54:04
6001353MARCEL BARBIERI SOUZA29M2029256MAVULSO03:54:09
6011491LUIZ GUSTAVO DIPP SPEZIA28M2029257MTEIMOSOS03:54:14
6021399JOVELINO PEREIRA DOS SANTOS NETO31M3044258MCOLANOBAIANO03:55:18
6031237IGOR ARTUR TAGLIARI TARDETTI19M141946MMECANIBRAVES03:57:17
6041232ANDRE VITOR FACHINELLO18M141947MMECANIBRAVES03:57:20
6051234BRUNO FUKUNAGA20M2029258MMECANIBRAVES03:57:20
6061233ARTHUR FARELL BORSATO19M141948MMECANIBRAVES03:57:21
6071235CELSO GUILHERME GUIMARAES DE OLIVEIRA18M141949MMECANIBRAVES03:57:21
608734GABRIEL ARTHUR FRANCIOSI SEIXAS27M2029259MLOS BRABOS03:59:22
609752GUILHERME AMANDO DE CARVALHO24M2029260MLOS BRAVOS03:59:39
6101270RAFAEL KOERICH RAMOS21M2029261MV8 ASSESSORIA ESPORTIVA03:59:44
6111356MARCO ANTONIO LEODORO DA SILVA JUNIOR37M3044259MAVULSO04:01:01
612709WOLNEI R. SOUZA34M3044260MFOX RUN04:01:57
613690EDSON OMAR DANTAS JUNIOR20M2029262MFOX RUN04:02:14
614968SANDRO JOSÉ ANDRIOLI BITTENCOURT47M459941MOS GRAVATAS04:03:49
615952DIEGO COELHO VIGARIO29M2029263MOS GRAVATAS04:03:50
616581EDIVALDO MARTINS CORREA30M3044261MAVULSO04:04:01
617802LUCAS IANCOSKI DA COSTA22M2029264MWCT04:04:05
618803BRUNO BARON25M2029265MWINCHESTER04:04:07
619642ERIK RYUJI MURAKAMI32M3044262MCWBULLS04:06:22
620645JORGE ADOLTO AQUINO34M3044263MCWBULLS04:09:24
621648RICARDO AUGUSTO PEREIRA39M3044264MCWBULLS04:09:36
6221189GERMANO FOGACA PAVAO DE SOUZA26M2029266MCROSSFIT CIANORTE04:11:33
6231190HIGOR FELIPE MARCUZ22M2029267MCROSSFIT CIANORTE04:11:35
6241157THIAGO VINICIUS HALAMA DE LIMA19M141950MAVULSO04:21:50
6251093GABRIEL HENRIQUE HALAMA DE LIMA18M141951MAVULSO04:21:52
626580DIOGO VINICIUS MARTINS DA CRUZ33M3044265MAVULSO04:27:02
627603ROBERT ZANONI JASLUK32M3044266MAVULSO04:27:03
628829VITOR SCORFI ROSETTE33M3044267MARAPONGAS04:31:14
629816CLAUDIO ALBERTO FRANZIN32M3044268MARAPONGAS04:31:23
630815ANDRE CRISTIANO OMODEI29M2029268MARAPONGAS04:31:28
631824MARCOS POZENATO36M3044269MARAPONGAS04:31:30
632827RODRIGO MORENO37M3044270MARAPONGAS04:31:30
633822MARCELO NISIOKA44M3044271MARAPONGAS04:31:32
6341258ADRIANO GUARESCHI PENA23M2029269MTHE SQUIRTLE SQUAD04:32:10
6351259BRUNO FANTIN DA COSTA24M2029270MTHE SQUIRTLE SQUAD04:32:11
6361260CESAR AUGUSTO PRESTES25M2029271MTHE SQUIRTLE SQUAD04:32:17
6371129MURILO ALVES DA ROSA22M2029272MAVULSO13:54:24
6381775MARCELO GORSKI27M2029273MAVULSO14:56:33
6391090FILIPE SOARES DE OLIVEIRA30M3044272MAVULSO15:03:18

 

Para dúvidas, sugestões ou reclamações entre em  contato conosco.

Se preferir também estamos disponíveis  em nossa página no Facebook

Siga-nos no Facebook: ChronoMAX Brasil… Curta nossa página!!! :)

ATUALIZADO 23/08/2016 ÀS 17:12HS

Matriz Curitiba
Rua Cel. José Leal Fontoura, 141, Xaxim, Curitiba – PR

E-mail: chronomax@chronomax.com.br

Telefones:
41 3779.0706 / 41 9151.0706 (Vivo)

Atendimento Whatsapp
41 9151.0706